| State | Missouri | Latest | Low (155 cfs) | |
| River | Little Sugar Creek | Rating | Observed | Estimated |
| Updated | 2026-05-10 8:15 (55 minutes ago) | Flood - The river is flooding. Obstacles can be treacherous or deadly. The river should be avoided at this stage for casual trips and definitely for the inexperienced. Trips should be attempted only with protective gear and equipment.Flood | (none) | 1245 |
| Discharge | 155 cfs (median: 289 cfs) | High - The river is high and potentially dangerous, especially for the young and / or inexperienced. Normal stream obstacles are sometimes difficult to navigate. Extended distances can be attempted, but canoe travel may not be advisable.High | (none) | 542 |
| Height | 2.4 feet | Good - Conditions are ideal for a canoe or kayak. Boats typically will drag on fewer than one-quarter of riffles, if at all, and portages are unnecessary or rare. Normal float lengths can be attempted without a problem.Good | (none) | 302 |
| Trend | Rising (falling over 24 hours) | Low - River is low but can still be floated. Some riffles are okay but most come with significant dragging and might need a portage. Float lengths should be reduced to accommodate low flow, dragging, and portages.Low | (none) | 153 |
| USGS | USGS Site ( Duck Duck Go Maps) | Poor - River is too low to float comfortably. Most or all riffles will drag or must be portaged and some obstacles (such as slick shelf rock) cause undue problems. Avoid the river at this stage for casual paddling trips.Poor | (none) | 58 |
| Date | Start | End | Distance | Condition | Discharge | Height | Fishing | Details |
|---|
A total of 0 rows are displayed.
BLG - Bluegill
CCF - Channel Catfish
CP - Chain Pickerel
FWD - Freshwater Drum
GSF - Green Sunfish
KSB - Kentucky Spotted Bass
LMB - Largemouth Bass
LSF - Longear Sunfish
RB - Rock Bass / Goggle Eye
RSF - Redear Sunfish
RT - Rainbow Trout
SMB - Smallmouth Bass
WB - White Bass
WF - Whitefish
WL - WalleyeThe classic River Trips application is still available for use. It is updated with the new system using a data retrofit. It is no longer maintained. The original River Trips application is no longer updated (as of 1 Dec 2016) but can be checked for errors or for the condition of the data before it was converted to the new system.
| Observation | Height | Discharge | Maximum Discharge | Minimum Discharge | Mean Discharge | P05 | P10 | P20 | P25 | P50 (Median) | P75 | P80 | P90 | P95 |
|---|---|---|---|---|---|---|---|---|---|---|---|---|---|---|
| 2026-05-10 08:15 | 2.40 | 155 | 6740 (2013) | 68 (2012) | 700 | 70 | 93 | 137 | 154 | 289 | 651 | 757 | 1150 | 6180 |
| 2026-05-10 07:15 | 2.39 | 153 | 6740 (2013) | 68 (2012) | 700 | 70 | 93 | 137 | 154 | 289 | 651 | 757 | 1150 | 6180 |
| 2026-05-10 06:15 | 2.41 | 156 | 6740 (2013) | 68 (2012) | 700 | 70 | 93 | 137 | 154 | 289 | 651 | 757 | 1150 | 6180 |
| 2026-05-10 05:15 | 2.40 | 155 | 6740 (2013) | 68 (2012) | 700 | 70 | 93 | 137 | 154 | 289 | 651 | 757 | 1150 | 6180 |
| 2026-05-10 04:15 | 2.41 | 156 | 6740 (2013) | 68 (2012) | 700 | 70 | 93 | 137 | 154 | 289 | 651 | 757 | 1150 | 6180 |
| 2026-05-10 03:15 | 2.40 | 155 | 6740 (2013) | 68 (2012) | 700 | 70 | 93 | 137 | 154 | 289 | 651 | 757 | 1150 | 6180 |
| 2026-05-10 02:15 | 2.41 | 156 | 6740 (2013) | 68 (2012) | 700 | 70 | 93 | 137 | 154 | 289 | 651 | 757 | 1150 | 6180 |
| 2026-05-10 01:15 | 2.41 | 156 | 6740 (2013) | 68 (2012) | 700 | 70 | 93 | 137 | 154 | 289 | 651 | 757 | 1150 | 6180 |
| 2026-05-10 00:15 | 2.42 | 158 | 6740 (2013) | 68 (2012) | 700 | 70 | 93 | 137 | 154 | 289 | 651 | 757 | 1150 | 6180 |
| 2026-05-09 23:15 | 2.43 | 160 | 6740 (2013) | 68 (2012) | 700 | 70 | 93 | 137 | 154 | 289 | 651 | 757 | 1150 | 6180 |
| 2026-05-09 22:15 | 2.43 | 160 | 1980 (2009) | 75 (2012) | 442 | 76 | 97 | 128 | 156 | 318 | 464 | 615 | 1140 | 1900 |
| 2026-05-09 21:15 | 2.44 | 162 | 1980 (2009) | 75 (2012) | 442 | 76 | 97 | 128 | 156 | 318 | 464 | 615 | 1140 | 1900 |
| 2026-05-09 20:15 | 2.44 | 162 | 1980 (2009) | 75 (2012) | 442 | 76 | 97 | 128 | 156 | 318 | 464 | 615 | 1140 | 1900 |
| 2026-05-09 19:15 | 2.45 | 164 | 1980 (2009) | 75 (2012) | 442 | 76 | 97 | 128 | 156 | 318 | 464 | 615 | 1140 | 1900 |
| 2026-05-09 18:15 | 2.45 | 164 | 1980 (2009) | 75 (2012) | 442 | 76 | 97 | 128 | 156 | 318 | 464 | 615 | 1140 | 1900 |
| 2026-05-09 17:15 | 2.46 | 166 | 1980 (2009) | 75 (2012) | 442 | 76 | 97 | 128 | 156 | 318 | 464 | 615 | 1140 | 1900 |
| 2026-05-09 16:15 | 2.47 | 168 | 1980 (2009) | 75 (2012) | 442 | 76 | 97 | 128 | 156 | 318 | 464 | 615 | 1140 | 1900 |
| 2026-05-09 15:15 | 2.47 | 168 | 1980 (2009) | 75 (2012) | 442 | 76 | 97 | 128 | 156 | 318 | 464 | 615 | 1140 | 1900 |
| 2026-05-09 14:15 | 2.48 | 170 | 1980 (2009) | 75 (2012) | 442 | 76 | 97 | 128 | 156 | 318 | 464 | 615 | 1140 | 1900 |
| 2026-05-09 13:15 | 2.48 | 170 | 1980 (2009) | 75 (2012) | 442 | 76 | 97 | 128 | 156 | 318 | 464 | 615 | 1140 | 1900 |
| 2026-05-09 12:15 | 2.48 | 170 | 1980 (2009) | 75 (2012) | 442 | 76 | 97 | 128 | 156 | 318 | 464 | 615 | 1140 | 1900 |
| 2026-05-09 11:15 | 2.50 | 174 | 1980 (2009) | 75 (2012) | 442 | 76 | 97 | 128 | 156 | 318 | 464 | 615 | 1140 | 1900 |
| 2026-05-09 10:15 | 2.48 | 170 | 1980 (2009) | 75 (2012) | 442 | 76 | 97 | 128 | 156 | 318 | 464 | 615 | 1140 | 1900 |
| 2026-05-09 09:15 | 2.48 | 170 | 1980 (2009) | 75 (2012) | 442 | 76 | 97 | 128 | 156 | 318 | 464 | 615 | 1140 | 1900 |
| 2026-05-09 08:15 | 2.48 | 170 | 1980 (2009) | 75 (2012) | 442 | 76 | 97 | 128 | 156 | 318 | 464 | 615 | 1140 | 1900 |
| 2026-05-09 07:15 | 2.48 | 170 | 1980 (2009) | 75 (2012) | 442 | 76 | 97 | 128 | 156 | 318 | 464 | 615 | 1140 | 1900 |
| 2026-05-09 06:15 | 2.49 | 172 | 1980 (2009) | 75 (2012) | 442 | 76 | 97 | 128 | 156 | 318 | 464 | 615 | 1140 | 1900 |
| 2026-05-09 05:15 | 2.49 | 172 | 1980 (2009) | 75 (2012) | 442 | 76 | 97 | 128 | 156 | 318 | 464 | 615 | 1140 | 1900 |
| 2026-05-09 04:15 | 2.50 | 174 | 1980 (2009) | 75 (2012) | 442 | 76 | 97 | 128 | 156 | 318 | 464 | 615 | 1140 | 1900 |
| 2026-05-09 03:15 | 2.50 | 174 | 1980 (2009) | 75 (2012) | 442 | 76 | 97 | 128 | 156 | 318 | 464 | 615 | 1140 | 1900 |
| 2026-05-09 02:15 | 2.50 | 174 | 1980 (2009) | 75 (2012) | 442 | 76 | 97 | 128 | 156 | 318 | 464 | 615 | 1140 | 1900 |
| 2026-05-09 01:15 | 2.50 | 174 | 1980 (2009) | 75 (2012) | 442 | 76 | 97 | 128 | 156 | 318 | 464 | 615 | 1140 | 1900 |
| 2026-05-09 00:15 | 2.52 | 178 | 1980 (2009) | 75 (2012) | 442 | 76 | 97 | 128 | 156 | 318 | 464 | 615 | 1140 | 1900 |
| 2026-05-08 23:15 | 2.52 | 178 | 1980 (2009) | 75 (2012) | 442 | 76 | 97 | 128 | 156 | 318 | 464 | 615 | 1140 | 1900 |
| 2026-05-08 22:15 | 2.53 | 181 | 1600 (2009) | 71 (2014) | 463 | 72 | 86 | 124 | 135 | 302 | 568 | 836 | 1440 | 1590 |
| 2026-05-08 21:15 | 2.53 | 181 | 1600 (2009) | 71 (2014) | 463 | 72 | 86 | 124 | 135 | 302 | 568 | 836 | 1440 | 1590 |
| 2026-05-08 20:15 | 2.53 | 181 | 1600 (2009) | 71 (2014) | 463 | 72 | 86 | 124 | 135 | 302 | 568 | 836 | 1440 | 1590 |
| 2026-05-08 19:15 | 2.54 | 183 | 1600 (2009) | 71 (2014) | 463 | 72 | 86 | 124 | 135 | 302 | 568 | 836 | 1440 | 1590 |
| 2026-05-08 18:15 | 2.55 | 185 | 1600 (2009) | 71 (2014) | 463 | 72 | 86 | 124 | 135 | 302 | 568 | 836 | 1440 | 1590 |
| 2026-05-08 17:15 | 2.56 | 187 | 1600 (2009) | 71 (2014) | 463 | 72 | 86 | 124 | 135 | 302 | 568 | 836 | 1440 | 1590 |
| 2026-05-08 16:15 | 2.57 | 189 | 1600 (2009) | 71 (2014) | 463 | 72 | 86 | 124 | 135 | 302 | 568 | 836 | 1440 | 1590 |
| 2026-05-08 15:15 | 2.58 | 191 | 1600 (2009) | 71 (2014) | 463 | 72 | 86 | 124 | 135 | 302 | 568 | 836 | 1440 | 1590 |
| 2026-05-08 14:15 | 2.58 | 191 | 1600 (2009) | 71 (2014) | 463 | 72 | 86 | 124 | 135 | 302 | 568 | 836 | 1440 | 1590 |
| 2026-05-08 13:15 | 2.58 | 191 | 1600 (2009) | 71 (2014) | 463 | 72 | 86 | 124 | 135 | 302 | 568 | 836 | 1440 | 1590 |
| 2026-05-08 12:15 | 2.58 | 191 | 1600 (2009) | 71 (2014) | 463 | 72 | 86 | 124 | 135 | 302 | 568 | 836 | 1440 | 1590 |
| 2026-05-08 11:15 | 2.58 | 191 | 1600 (2009) | 71 (2014) | 463 | 72 | 86 | 124 | 135 | 302 | 568 | 836 | 1440 | 1590 |
| 2026-05-08 10:15 | 2.58 | 191 | 1600 (2009) | 71 (2014) | 463 | 72 | 86 | 124 | 135 | 302 | 568 | 836 | 1440 | 1590 |
| 2026-05-08 09:15 | 2.58 | 191 | 1600 (2009) | 71 (2014) | 463 | 72 | 86 | 124 | 135 | 302 | 568 | 836 | 1440 | 1590 |
| 2026-05-08 08:15 | 2.59 | 194 | 1600 (2009) | 71 (2014) | 463 | 72 | 86 | 124 | 135 | 302 | 568 | 836 | 1440 | 1590 |
| 2026-05-08 07:15 | 2.61 | 198 | 1600 (2009) | 71 (2014) | 463 | 72 | 86 | 124 | 135 | 302 | 568 | 836 | 1440 | 1590 |
| 2026-05-08 06:15 | 2.60 | 196 | 1600 (2009) | 71 (2014) | 463 | 72 | 86 | 124 | 135 | 302 | 568 | 836 | 1440 | 1590 |
| 2026-05-08 05:15 | 2.61 | 198 | 1600 (2009) | 71 (2014) | 463 | 72 | 86 | 124 | 135 | 302 | 568 | 836 | 1440 | 1590 |
| 2026-05-08 04:15 | 2.61 | 198 | 1600 (2009) | 71 (2014) | 463 | 72 | 86 | 124 | 135 | 302 | 568 | 836 | 1440 | 1590 |
| 2026-05-08 03:15 | 2.61 | 198 | 1600 (2009) | 71 (2014) | 463 | 72 | 86 | 124 | 135 | 302 | 568 | 836 | 1440 | 1590 |
| 2026-05-08 02:15 | 2.62 | 200 | 1600 (2009) | 71 (2014) | 463 | 72 | 86 | 124 | 135 | 302 | 568 | 836 | 1440 | 1590 |
| 2026-05-08 01:15 | 2.62 | 200 | 1600 (2009) | 71 (2014) | 463 | 72 | 86 | 124 | 135 | 302 | 568 | 836 | 1440 | 1590 |
| 2026-05-08 00:15 | 2.63 | 203 | 1600 (2009) | 71 (2014) | 463 | 72 | 86 | 124 | 135 | 302 | 568 | 836 | 1440 | 1590 |
| 2026-05-07 23:15 | 2.64 | 205 | 1600 (2009) | 71 (2014) | 463 | 72 | 86 | 124 | 135 | 302 | 568 | 836 | 1440 | 1590 |
| 2026-05-07 22:15 | 2.64 | 205 | 3280 (2024) | 66 (2014) | 525 | 68 | 91 | 131 | 143 | 339 | 454 | 619 | 1390 | 3100 |
| 2026-05-07 21:15 | 2.65 | 207 | 3280 (2024) | 66 (2014) | 525 | 68 | 91 | 131 | 143 | 339 | 454 | 619 | 1390 | 3100 |
| 2026-05-07 20:15 | 2.66 | 210 | 3280 (2024) | 66 (2014) | 525 | 68 | 91 | 131 | 143 | 339 | 454 | 619 | 1390 | 3100 |
| 2026-05-07 19:15 | 2.68 | 214 | 3280 (2024) | 66 (2014) | 525 | 68 | 91 | 131 | 143 | 339 | 454 | 619 | 1390 | 3100 |
| 2026-05-07 18:15 | 2.69 | 217 | 3280 (2024) | 66 (2014) | 525 | 68 | 91 | 131 | 143 | 339 | 454 | 619 | 1390 | 3100 |
| 2026-05-07 17:15 | 2.69 | 217 | 3280 (2024) | 66 (2014) | 525 | 68 | 91 | 131 | 143 | 339 | 454 | 619 | 1390 | 3100 |
| 2026-05-07 16:15 | 2.70 | 219 | 3280 (2024) | 66 (2014) | 525 | 68 | 91 | 131 | 143 | 339 | 454 | 619 | 1390 | 3100 |
| 2026-05-07 15:15 | 2.71 | 222 | 3280 (2024) | 66 (2014) | 525 | 68 | 91 | 131 | 143 | 339 | 454 | 619 | 1390 | 3100 |
| 2026-05-07 14:15 | 2.71 | 222 | 3280 (2024) | 66 (2014) | 525 | 68 | 91 | 131 | 143 | 339 | 454 | 619 | 1390 | 3100 |
| 2026-05-07 13:15 | 2.71 | 222 | 3280 (2024) | 66 (2014) | 525 | 68 | 91 | 131 | 143 | 339 | 454 | 619 | 1390 | 3100 |
| 2026-05-07 12:15 | 2.73 | 227 | 3280 (2024) | 66 (2014) | 525 | 68 | 91 | 131 | 143 | 339 | 454 | 619 | 1390 | 3100 |
| 2026-05-07 11:15 | 2.72 | 224 | 3280 (2024) | 66 (2014) | 525 | 68 | 91 | 131 | 143 | 339 | 454 | 619 | 1390 | 3100 |
| 2026-05-07 10:15 | 2.74 | 229 | 3280 (2024) | 66 (2014) | 525 | 68 | 91 | 131 | 143 | 339 | 454 | 619 | 1390 | 3100 |
| 2026-05-07 09:15 | 2.73 | 227 | 3280 (2024) | 66 (2014) | 525 | 68 | 91 | 131 | 143 | 339 | 454 | 619 | 1390 | 3100 |
| 2026-05-07 08:15 | 2.73 | 227 | 3280 (2024) | 66 (2014) | 525 | 68 | 91 | 131 | 143 | 339 | 454 | 619 | 1390 | 3100 |
| 2026-05-07 07:15 | 2.73 | 227 | 3280 (2024) | 66 (2014) | 525 | 68 | 91 | 131 | 143 | 339 | 454 | 619 | 1390 | 3100 |
| 2026-05-07 06:15 | 2.75 | 232 | 3280 (2024) | 66 (2014) | 525 | 68 | 91 | 131 | 143 | 339 | 454 | 619 | 1390 | 3100 |
| 2026-05-07 05:15 | 2.75 | 232 | 3280 (2024) | 66 (2014) | 525 | 68 | 91 | 131 | 143 | 339 | 454 | 619 | 1390 | 3100 |
| 2026-05-07 04:15 | 2.76 | 234 | 3280 (2024) | 66 (2014) | 525 | 68 | 91 | 131 | 143 | 339 | 454 | 619 | 1390 | 3100 |
| 2026-05-07 03:15 | 2.77 | 237 | 3280 (2024) | 66 (2014) | 525 | 68 | 91 | 131 | 143 | 339 | 454 | 619 | 1390 | 3100 |
| 2026-05-07 02:15 | 2.78 | 239 | 3280 (2024) | 66 (2014) | 525 | 68 | 91 | 131 | 143 | 339 | 454 | 619 | 1390 | 3100 |
| 2026-05-07 01:15 | 2.78 | 239 | 3280 (2024) | 66 (2014) | 525 | 68 | 91 | 131 | 143 | 339 | 454 | 619 | 1390 | 3100 |
| 2026-05-07 00:15 | 2.79 | 242 | 3280 (2024) | 66 (2014) | 525 | 68 | 91 | 131 | 143 | 339 | 454 | 619 | 1390 | 3100 |
| 2026-05-06 23:15 | 2.81 | 247 | 3280 (2024) | 66 (2014) | 525 | 68 | 91 | 131 | 143 | 339 | 454 | 619 | 1390 | 3100 |
| 2026-05-06 22:15 | 2.81 | 247 | 3580 (2022) | 68 (2014) | 517 | 70 | 96 | 139 | 157 | 369 | 526 | 563 | 1020 | 3330 |
| 2026-05-06 21:15 | 2.83 | 253 | 3580 (2022) | 68 (2014) | 517 | 70 | 96 | 139 | 157 | 369 | 526 | 563 | 1020 | 3330 |
| 2026-05-06 20:15 | 2.84 | 255 | 3580 (2022) | 68 (2014) | 517 | 70 | 96 | 139 | 157 | 369 | 526 | 563 | 1020 | 3330 |
| 2026-05-06 19:15 | 2.86 | 261 | 3580 (2022) | 68 (2014) | 517 | 70 | 96 | 139 | 157 | 369 | 526 | 563 | 1020 | 3330 |
| 2026-05-06 18:15 | 2.87 | 264 | 3580 (2022) | 68 (2014) | 517 | 70 | 96 | 139 | 157 | 369 | 526 | 563 | 1020 | 3330 |
| 2026-05-06 17:15 | 2.87 | 264 | 3580 (2022) | 68 (2014) | 517 | 70 | 96 | 139 | 157 | 369 | 526 | 563 | 1020 | 3330 |
| 2026-05-06 16:15 | 2.88 | 266 | 3580 (2022) | 68 (2014) | 517 | 70 | 96 | 139 | 157 | 369 | 526 | 563 | 1020 | 3330 |
| 2026-05-06 15:15 | 2.90 | 272 | 3580 (2022) | 68 (2014) | 517 | 70 | 96 | 139 | 157 | 369 | 526 | 563 | 1020 | 3330 |
| 2026-05-06 14:15 | 2.92 | 278 | 3580 (2022) | 68 (2014) | 517 | 70 | 96 | 139 | 157 | 369 | 526 | 563 | 1020 | 3330 |
| 2026-05-06 13:15 | 2.92 | 278 | 3580 (2022) | 68 (2014) | 517 | 70 | 96 | 139 | 157 | 369 | 526 | 563 | 1020 | 3330 |
| 2026-05-06 12:15 | 2.93 | 281 | 3580 (2022) | 68 (2014) | 517 | 70 | 96 | 139 | 157 | 369 | 526 | 563 | 1020 | 3330 |
| 2026-05-06 11:15 | 2.93 | 281 | 3580 (2022) | 68 (2014) | 517 | 70 | 96 | 139 | 157 | 369 | 526 | 563 | 1020 | 3330 |
| 2026-05-06 10:15 | 2.94 | 284 | 3580 (2022) | 68 (2014) | 517 | 70 | 96 | 139 | 157 | 369 | 526 | 563 | 1020 | 3330 |
| 2026-05-06 09:15 | 2.96 | 289 | 3580 (2022) | 68 (2014) | 517 | 70 | 96 | 139 | 157 | 369 | 526 | 563 | 1020 | 3330 |
| 2026-05-06 08:15 | 2.96 | 289 | 3580 (2022) | 68 (2014) | 517 | 70 | 96 | 139 | 157 | 369 | 526 | 563 | 1020 | 3330 |
| 2026-05-06 07:15 | 2.98 | 295 | 3580 (2022) | 68 (2014) | 517 | 70 | 96 | 139 | 157 | 369 | 526 | 563 | 1020 | 3330 |
| 2026-05-06 06:15 | 2.99 | 298 | 3580 (2022) | 68 (2014) | 517 | 70 | 96 | 139 | 157 | 369 | 526 | 563 | 1020 | 3330 |
| 2026-05-06 05:15 | 3.01 | 305 | 3580 (2022) | 68 (2014) | 517 | 70 | 96 | 139 | 157 | 369 | 526 | 563 | 1020 | 3330 |
| 2026-05-06 04:15 | 3.01 | 305 | 3580 (2022) | 68 (2014) | 517 | 70 | 96 | 139 | 157 | 369 | 526 | 563 | 1020 | 3330 |
| 2026-05-06 03:15 | 3.03 | 311 | 3580 (2022) | 68 (2014) | 517 | 70 | 96 | 139 | 157 | 369 | 526 | 563 | 1020 | 3330 |
| 2026-05-06 02:15 | 3.03 | 311 | 3580 (2022) | 68 (2014) | 517 | 70 | 96 | 139 | 157 | 369 | 526 | 563 | 1020 | 3330 |
| 2026-05-06 01:15 | 3.05 | 317 | 3580 (2022) | 68 (2014) | 517 | 70 | 96 | 139 | 157 | 369 | 526 | 563 | 1020 | 3330 |
| 2026-05-06 00:15 | 3.06 | 320 | 3580 (2022) | 68 (2014) | 517 | 70 | 96 | 139 | 157 | 369 | 526 | 563 | 1020 | 3330 |
| 2026-05-05 23:15 | 3.07 | 324 | 3580 (2022) | 68 (2014) | 517 | 70 | 96 | 139 | 157 | 369 | 526 | 563 | 1020 | 3330 |
| 2026-05-05 22:15 | 3.07 | 324 | 9470 (2022) | 70 (2014) | 828 | 72 | 100 | 145 | 161 | 340 | 578 | 716 | 969 | 8620 |
| 2026-05-05 21:15 | 3.07 | 324 | 9470 (2022) | 70 (2014) | 828 | 72 | 100 | 145 | 161 | 340 | 578 | 716 | 969 | 8620 |
| 2026-05-05 20:15 | 3.09 | 330 | 9470 (2022) | 70 (2014) | 828 | 72 | 100 | 145 | 161 | 340 | 578 | 716 | 969 | 8620 |
| 2026-05-05 19:15 | 3.10 | 333 | 9470 (2022) | 70 (2014) | 828 | 72 | 100 | 145 | 161 | 340 | 578 | 716 | 969 | 8620 |
| 2026-05-05 18:15 | 3.12 | 340 | 9470 (2022) | 70 (2014) | 828 | 72 | 100 | 145 | 161 | 340 | 578 | 716 | 969 | 8620 |
| 2026-05-05 17:15 | 3.16 | 354 | 9470 (2022) | 70 (2014) | 828 | 72 | 100 | 145 | 161 | 340 | 578 | 716 | 969 | 8620 |
| 2026-05-05 16:15 | 3.17 | 357 | 9470 (2022) | 70 (2014) | 828 | 72 | 100 | 145 | 161 | 340 | 578 | 716 | 969 | 8620 |
| 2026-05-05 15:15 | 3.15 | 350 | 9470 (2022) | 70 (2014) | 828 | 72 | 100 | 145 | 161 | 340 | 578 | 716 | 969 | 8620 |
| 2026-05-05 14:15 | 3.10 | 333 | 9470 (2022) | 70 (2014) | 828 | 72 | 100 | 145 | 161 | 340 | 578 | 716 | 969 | 8620 |
| 2026-05-05 13:15 | 3.02 | 308 | 9470 (2022) | 70 (2014) | 828 | 72 | 100 | 145 | 161 | 340 | 578 | 716 | 969 | 8620 |
| 2026-05-05 12:15 | 2.95 | 286 | 9470 (2022) | 70 (2014) | 828 | 72 | 100 | 145 | 161 | 340 | 578 | 716 | 969 | 8620 |
| 2026-05-05 11:15 | 2.90 | 272 | 9470 (2022) | 70 (2014) | 828 | 72 | 100 | 145 | 161 | 340 | 578 | 716 | 969 | 8620 |
| 2026-05-05 10:15 | 2.83 | 253 | 9470 (2022) | 70 (2014) | 828 | 72 | 100 | 145 | 161 | 340 | 578 | 716 | 969 | 8620 |
| 2026-05-05 09:15 | 2.72 | 224 | 9470 (2022) | 70 (2014) | 828 | 72 | 100 | 145 | 161 | 340 | 578 | 716 | 969 | 8620 |
| 2026-05-05 08:15 | 2.59 | 194 | 9470 (2022) | 70 (2014) | 828 | 72 | 100 | 145 | 161 | 340 | 578 | 716 | 969 | 8620 |
| 2026-05-05 07:15 | 2.49 | 172 | 9470 (2022) | 70 (2014) | 828 | 72 | 100 | 145 | 161 | 340 | 578 | 716 | 969 | 8620 |
| 2026-05-05 06:15 | 2.41 | 156 | 9470 (2022) | 70 (2014) | 828 | 72 | 100 | 145 | 161 | 340 | 578 | 716 | 969 | 8620 |
| 2026-05-05 05:15 | 2.36 | 147 | 9470 (2022) | 70 (2014) | 828 | 72 | 100 | 145 | 161 | 340 | 578 | 716 | 969 | 8620 |
| 2026-05-05 04:15 | 2.36 | 147 | 9470 (2022) | 70 (2014) | 828 | 72 | 100 | 145 | 161 | 340 | 578 | 716 | 969 | 8620 |
| 2026-05-05 03:15 | 2.35 | 145 | 9470 (2022) | 70 (2014) | 828 | 72 | 100 | 145 | 161 | 340 | 578 | 716 | 969 | 8620 |
| 2026-05-05 02:15 | 2.32 | 140 | 9470 (2022) | 70 (2014) | 828 | 72 | 100 | 145 | 161 | 340 | 578 | 716 | 969 | 8620 |
| 2026-05-05 01:15 | 2.26 | 130 | 9470 (2022) | 70 (2014) | 828 | 72 | 100 | 145 | 161 | 340 | 578 | 716 | 969 | 8620 |
| 2026-05-05 00:15 | 2.25 | 128 | 9470 (2022) | 70 (2014) | 828 | 72 | 100 | 145 | 161 | 340 | 578 | 716 | 969 | 8620 |
| 2026-05-04 23:15 | 2.26 | 130 | 9470 (2022) | 70 (2014) | 828 | 72 | 100 | 145 | 161 | 340 | 578 | 716 | 969 | 8620 |
| 2026-05-04 22:15 | 2.26 | 130 | 1980 (2018) | 71 (2014) | 545 | 74 | 105 | 140 | 171 | 373 | 624 | 850 | 1750 | 1970 |
| 2026-05-04 21:15 | 2.26 | 130 | 1980 (2018) | 71 (2014) | 545 | 74 | 105 | 140 | 171 | 373 | 624 | 850 | 1750 | 1970 |
| 2026-05-04 20:15 | 2.27 | 131 | 1980 (2018) | 71 (2014) | 545 | 74 | 105 | 140 | 171 | 373 | 624 | 850 | 1750 | 1970 |
| 2026-05-04 19:15 | 2.27 | 131 | 1980 (2018) | 71 (2014) | 545 | 74 | 105 | 140 | 171 | 373 | 624 | 850 | 1750 | 1970 |
| 2026-05-04 18:15 | 2.27 | 131 | 1980 (2018) | 71 (2014) | 545 | 74 | 105 | 140 | 171 | 373 | 624 | 850 | 1750 | 1970 |
| 2026-05-04 17:15 | 2.27 | 131 | 1980 (2018) | 71 (2014) | 545 | 74 | 105 | 140 | 171 | 373 | 624 | 850 | 1750 | 1970 |
| 2026-05-04 16:15 | 2.28 | 133 | 1980 (2018) | 71 (2014) | 545 | 74 | 105 | 140 | 171 | 373 | 624 | 850 | 1750 | 1970 |
| 2026-05-04 15:15 | 2.28 | 133 | 1980 (2018) | 71 (2014) | 545 | 74 | 105 | 140 | 171 | 373 | 624 | 850 | 1750 | 1970 |
| 2026-05-04 14:15 | 2.27 | 131 | 1980 (2018) | 71 (2014) | 545 | 74 | 105 | 140 | 171 | 373 | 624 | 850 | 1750 | 1970 |
| 2026-05-04 13:15 | 2.27 | 131 | 1980 (2018) | 71 (2014) | 545 | 74 | 105 | 140 | 171 | 373 | 624 | 850 | 1750 | 1970 |
| 2026-05-04 12:15 | 2.27 | 131 | 1980 (2018) | 71 (2014) | 545 | 74 | 105 | 140 | 171 | 373 | 624 | 850 | 1750 | 1970 |
| 2026-05-04 11:15 | 2.28 | 133 | 1980 (2018) | 71 (2014) | 545 | 74 | 105 | 140 | 171 | 373 | 624 | 850 | 1750 | 1970 |
| 2026-05-04 10:15 | 2.28 | 133 | 1980 (2018) | 71 (2014) | 545 | 74 | 105 | 140 | 171 | 373 | 624 | 850 | 1750 | 1970 |
| 2026-05-04 09:15 | 2.27 | 131 | 1980 (2018) | 71 (2014) | 545 | 74 | 105 | 140 | 171 | 373 | 624 | 850 | 1750 | 1970 |
| 2026-05-04 08:15 | 2.28 | 133 | 1980 (2018) | 71 (2014) | 545 | 74 | 105 | 140 | 171 | 373 | 624 | 850 | 1750 | 1970 |
| 2026-05-04 07:15 | 2.28 | 133 | 1980 (2018) | 71 (2014) | 545 | 74 | 105 | 140 | 171 | 373 | 624 | 850 | 1750 | 1970 |
| 2026-05-04 06:15 | 2.28 | 133 | 1980 (2018) | 71 (2014) | 545 | 74 | 105 | 140 | 171 | 373 | 624 | 850 | 1750 | 1970 |
| 2026-05-04 05:15 | 2.28 | 133 | 1980 (2018) | 71 (2014) | 545 | 74 | 105 | 140 | 171 | 373 | 624 | 850 | 1750 | 1970 |
| 2026-05-04 04:15 | 2.28 | 133 | 1980 (2018) | 71 (2014) | 545 | 74 | 105 | 140 | 171 | 373 | 624 | 850 | 1750 | 1970 |
| 2026-05-04 03:15 | 2.28 | 133 | 1980 (2018) | 71 (2014) | 545 | 74 | 105 | 140 | 171 | 373 | 624 | 850 | 1750 | 1970 |
| 2026-05-04 02:15 | 2.28 | 133 | 1980 (2018) | 71 (2014) | 545 | 74 | 105 | 140 | 171 | 373 | 624 | 850 | 1750 | 1970 |
| 2026-05-04 01:15 | 2.28 | 133 | 1980 (2018) | 71 (2014) | 545 | 74 | 105 | 140 | 171 | 373 | 624 | 850 | 1750 | 1970 |
| 2026-05-04 00:15 | 2.28 | 133 | 1980 (2018) | 71 (2014) | 545 | 74 | 105 | 140 | 171 | 373 | 624 | 850 | 1750 | 1970 |
| 2026-05-03 23:15 | 2.28 | 133 | 1980 (2018) | 71 (2014) | 545 | 74 | 105 | 140 | 171 | 373 | 624 | 850 | 1750 | 1970 |
| 2026-05-03 22:15 | 2.28 | 133 | 2000 (2009) | 74 (2014) | 529 | 77 | 111 | 155 | 181 | 438 | 742 | 820 | 1200 | 1920 |
| 2026-05-03 21:15 | 2.28 | 133 | 2000 (2009) | 74 (2014) | 529 | 77 | 111 | 155 | 181 | 438 | 742 | 820 | 1200 | 1920 |
| 2026-05-03 20:15 | 2.29 | 135 | 2000 (2009) | 74 (2014) | 529 | 77 | 111 | 155 | 181 | 438 | 742 | 820 | 1200 | 1920 |
| 2026-05-03 19:15 | 2.29 | 135 | 2000 (2009) | 74 (2014) | 529 | 77 | 111 | 155 | 181 | 438 | 742 | 820 | 1200 | 1920 |
| 2026-05-03 18:15 | 2.30 | 136 | 2000 (2009) | 74 (2014) | 529 | 77 | 111 | 155 | 181 | 438 | 742 | 820 | 1200 | 1920 |
| 2026-05-03 17:15 | 2.27 | 131 | 2000 (2009) | 74 (2014) | 529 | 77 | 111 | 155 | 181 | 438 | 742 | 820 | 1200 | 1920 |
| 2026-05-03 16:15 | 2.29 | 135 | 2000 (2009) | 74 (2014) | 529 | 77 | 111 | 155 | 181 | 438 | 742 | 820 | 1200 | 1920 |
| 2026-05-03 15:15 | 2.31 | 138 | 2000 (2009) | 74 (2014) | 529 | 77 | 111 | 155 | 181 | 438 | 742 | 820 | 1200 | 1920 |
| 2026-05-03 14:15 | 2.30 | 136 | 2000 (2009) | 74 (2014) | 529 | 77 | 111 | 155 | 181 | 438 | 742 | 820 | 1200 | 1920 |
| 2026-05-03 13:15 | 2.31 | 138 | 2000 (2009) | 74 (2014) | 529 | 77 | 111 | 155 | 181 | 438 | 742 | 820 | 1200 | 1920 |
| 2026-05-03 12:15 | 2.30 | 136 | 2000 (2009) | 74 (2014) | 529 | 77 | 111 | 155 | 181 | 438 | 742 | 820 | 1200 | 1920 |
| 2026-05-03 11:15 | 2.31 | 138 | 2000 (2009) | 74 (2014) | 529 | 77 | 111 | 155 | 181 | 438 | 742 | 820 | 1200 | 1920 |
| 2026-05-03 10:15 | 2.32 | 140 | 2000 (2009) | 74 (2014) | 529 | 77 | 111 | 155 | 181 | 438 | 742 | 820 | 1200 | 1920 |
| 2026-05-03 09:15 | 2.32 | 140 | 2000 (2009) | 74 (2014) | 529 | 77 | 111 | 155 | 181 | 438 | 742 | 820 | 1200 | 1920 |
| 2026-05-03 08:15 | 2.32 | 140 | 2000 (2009) | 74 (2014) | 529 | 77 | 111 | 155 | 181 | 438 | 742 | 820 | 1200 | 1920 |
| 2026-05-03 07:15 | 2.30 | 136 | 2000 (2009) | 74 (2014) | 529 | 77 | 111 | 155 | 181 | 438 | 742 | 820 | 1200 | 1920 |
| 2026-05-03 06:15 | 2.31 | 138 | 2000 (2009) | 74 (2014) | 529 | 77 | 111 | 155 | 181 | 438 | 742 | 820 | 1200 | 1920 |
| 2026-05-03 05:15 | 2.32 | 140 | 2000 (2009) | 74 (2014) | 529 | 77 | 111 | 155 | 181 | 438 | 742 | 820 | 1200 | 1920 |
| 2026-05-03 04:15 | 2.32 | 140 | 2000 (2009) | 74 (2014) | 529 | 77 | 111 | 155 | 181 | 438 | 742 | 820 | 1200 | 1920 |
| 2026-05-03 03:15 | 2.32 | 140 | 2000 (2009) | 74 (2014) | 529 | 77 | 111 | 155 | 181 | 438 | 742 | 820 | 1200 | 1920 |
| 2026-05-03 02:15 | 2.33 | 142 | 2000 (2009) | 74 (2014) | 529 | 77 | 111 | 155 | 181 | 438 | 742 | 820 | 1200 | 1920 |
| 2026-05-03 01:15 | 2.33 | 142 | 2000 (2009) | 74 (2014) | 529 | 77 | 111 | 155 | 181 | 438 | 742 | 820 | 1200 | 1920 |
| 2026-05-03 00:15 | 2.33 | 142 | 2000 (2009) | 74 (2014) | 529 | 77 | 111 | 155 | 181 | 438 | 742 | 820 | 1200 | 1920 |
| 2026-05-02 23:15 | 2.33 | 142 | 2000 (2009) | 74 (2014) | 529 | 77 | 111 | 155 | 181 | 438 | 742 | 820 | 1200 | 1920 |
| 2026-05-02 22:15 | 2.33 | 142 | 1830 (2019) | 75 (2014) | 447 | 79 | 116 | 178 | 191 | 306 | 569 | 625 | 1060 | 1760 |
| 2026-05-02 21:15 | 2.34 | 143 | 1830 (2019) | 75 (2014) | 447 | 79 | 116 | 178 | 191 | 306 | 569 | 625 | 1060 | 1760 |
| 2026-05-02 20:15 | 2.34 | 143 | 1830 (2019) | 75 (2014) | 447 | 79 | 116 | 178 | 191 | 306 | 569 | 625 | 1060 | 1760 |
| 2026-05-02 19:15 | 2.35 | 145 | 1830 (2019) | 75 (2014) | 447 | 79 | 116 | 178 | 191 | 306 | 569 | 625 | 1060 | 1760 |
| 2026-05-02 18:15 | 2.35 | 145 | 1830 (2019) | 75 (2014) | 447 | 79 | 116 | 178 | 191 | 306 | 569 | 625 | 1060 | 1760 |
| 2026-05-02 17:15 | 2.36 | 147 | 1830 (2019) | 75 (2014) | 447 | 79 | 116 | 178 | 191 | 306 | 569 | 625 | 1060 | 1760 |
| 2026-05-02 16:15 | 2.36 | 147 | 1830 (2019) | 75 (2014) | 447 | 79 | 116 | 178 | 191 | 306 | 569 | 625 | 1060 | 1760 |
| 2026-05-02 15:15 | 2.38 | 151 | 1830 (2019) | 75 (2014) | 447 | 79 | 116 | 178 | 191 | 306 | 569 | 625 | 1060 | 1760 |
| 2026-05-02 14:15 | 2.38 | 151 | 1830 (2019) | 75 (2014) | 447 | 79 | 116 | 178 | 191 | 306 | 569 | 625 | 1060 | 1760 |
| 2026-05-02 13:15 | 2.37 | 149 | 1830 (2019) | 75 (2014) | 447 | 79 | 116 | 178 | 191 | 306 | 569 | 625 | 1060 | 1760 |
| 2026-05-02 12:15 | 2.37 | 149 | 1830 (2019) | 75 (2014) | 447 | 79 | 116 | 178 | 191 | 306 | 569 | 625 | 1060 | 1760 |
| 2026-05-02 11:15 | 2.36 | 147 | 1830 (2019) | 75 (2014) | 447 | 79 | 116 | 178 | 191 | 306 | 569 | 625 | 1060 | 1760 |
| 2026-05-02 10:15 | 2.37 | 149 | 1830 (2019) | 75 (2014) | 447 | 79 | 116 | 178 | 191 | 306 | 569 | 625 | 1060 | 1760 |
| 2026-05-02 09:15 | 2.39 | 153 | 1830 (2019) | 75 (2014) | 447 | 79 | 116 | 178 | 191 | 306 | 569 | 625 | 1060 | 1760 |
| 2026-05-02 08:15 | 2.36 | 147 | 1830 (2019) | 75 (2014) | 447 | 79 | 116 | 178 | 191 | 306 | 569 | 625 | 1060 | 1760 |
| 2026-05-02 07:15 | 2.38 | 151 | 1830 (2019) | 75 (2014) | 447 | 79 | 116 | 178 | 191 | 306 | 569 | 625 | 1060 | 1760 |
| 2026-05-02 06:15 | 2.39 | 153 | 1830 (2019) | 75 (2014) | 447 | 79 | 116 | 178 | 191 | 306 | 569 | 625 | 1060 | 1760 |
| 2026-05-02 05:15 | 2.39 | 153 | 1830 (2019) | 75 (2014) | 447 | 79 | 116 | 178 | 191 | 306 | 569 | 625 | 1060 | 1760 |
| 2026-05-02 04:15 | 2.39 | 153 | 1830 (2019) | 75 (2014) | 447 | 79 | 116 | 178 | 191 | 306 | 569 | 625 | 1060 | 1760 |
| 2026-05-02 03:15 | 2.40 | 155 | 1830 (2019) | 75 (2014) | 447 | 79 | 116 | 178 | 191 | 306 | 569 | 625 | 1060 | 1760 |
| 2026-05-02 02:15 | 2.40 | 155 | 1830 (2019) | 75 (2014) | 447 | 79 | 116 | 178 | 191 | 306 | 569 | 625 | 1060 | 1760 |
| 2026-05-02 01:15 | 2.40 | 155 | 1830 (2019) | 75 (2014) | 447 | 79 | 116 | 178 | 191 | 306 | 569 | 625 | 1060 | 1760 |
| 2026-05-02 00:15 | 2.39 | 153 | 1830 (2019) | 75 (2014) | 447 | 79 | 116 | 178 | 191 | 306 | 569 | 625 | 1060 | 1760 |
| 2026-05-01 23:15 | 2.40 | 155 | 1830 (2019) | 75 (2014) | 447 | 79 | 116 | 178 | 191 | 306 | 569 | 625 | 1060 | 1760 |
| 2026-05-01 22:15 | 2.40 | 155 | 8620 (2019) | 79 (2014) | 848 | 83 | 115 | 149 | 180 | 324 | 637 | 719 | 2070 | 8000 |
| 2026-05-01 21:15 | 2.40 | 155 | 8620 (2019) | 79 (2014) | 848 | 83 | 115 | 149 | 180 | 324 | 637 | 719 | 2070 | 8000 |
| 2026-05-01 20:15 | 2.41 | 156 | 8620 (2019) | 79 (2014) | 848 | 83 | 115 | 149 | 180 | 324 | 637 | 719 | 2070 | 8000 |
| 2026-05-01 19:15 | 2.41 | 156 | 8620 (2019) | 79 (2014) | 848 | 83 | 115 | 149 | 180 | 324 | 637 | 719 | 2070 | 8000 |
| 2026-05-01 18:15 | 2.42 | 158 | 8620 (2019) | 79 (2014) | 848 | 83 | 115 | 149 | 180 | 324 | 637 | 719 | 2070 | 8000 |
| 2026-05-01 17:15 | 2.42 | 158 | 8620 (2019) | 79 (2014) | 848 | 83 | 115 | 149 | 180 | 324 | 637 | 719 | 2070 | 8000 |
| 2026-05-01 16:15 | 2.42 | 158 | 8620 (2019) | 79 (2014) | 848 | 83 | 115 | 149 | 180 | 324 | 637 | 719 | 2070 | 8000 |
| 2026-05-01 15:15 | 2.44 | 162 | 8620 (2019) | 79 (2014) | 848 | 83 | 115 | 149 | 180 | 324 | 637 | 719 | 2070 | 8000 |
| 2026-05-01 14:15 | 2.42 | 158 | 8620 (2019) | 79 (2014) | 848 | 83 | 115 | 149 | 180 | 324 | 637 | 719 | 2070 | 8000 |
| 2026-05-01 13:15 | 2.42 | 158 | 8620 (2019) | 79 (2014) | 848 | 83 | 115 | 149 | 180 | 324 | 637 | 719 | 2070 | 8000 |
| 2026-05-01 12:15 | 2.43 | 160 | 8620 (2019) | 79 (2014) | 848 | 83 | 115 | 149 | 180 | 324 | 637 | 719 | 2070 | 8000 |
| 2026-05-01 11:15 | 2.44 | 162 | 8620 (2019) | 79 (2014) | 848 | 83 | 115 | 149 | 180 | 324 | 637 | 719 | 2070 | 8000 |
| 2026-05-01 10:15 | 2.43 | 160 | 8620 (2019) | 79 (2014) | 848 | 83 | 115 | 149 | 180 | 324 | 637 | 719 | 2070 | 8000 |
| 2026-05-01 09:15 | 2.43 | 160 | 8620 (2019) | 79 (2014) | 848 | 83 | 115 | 149 | 180 | 324 | 637 | 719 | 2070 | 8000 |
| 2026-05-01 08:15 | 2.43 | 160 | 8620 (2019) | 79 (2014) | 848 | 83 | 115 | 149 | 180 | 324 | 637 | 719 | 2070 | 8000 |
| 2026-05-01 07:15 | 2.44 | 162 | 8620 (2019) | 79 (2014) | 848 | 83 | 115 | 149 | 180 | 324 | 637 | 719 | 2070 | 8000 |
| 2026-05-01 06:15 | 2.44 | 162 | 8620 (2019) | 79 (2014) | 848 | 83 | 115 | 149 | 180 | 324 | 637 | 719 | 2070 | 8000 |
| 2026-05-01 05:15 | 2.44 | 162 | 8620 (2019) | 79 (2014) | 848 | 83 | 115 | 149 | 180 | 324 | 637 | 719 | 2070 | 8000 |
| 2026-05-01 04:15 | 2.44 | 162 | 8620 (2019) | 79 (2014) | 848 | 83 | 115 | 149 | 180 | 324 | 637 | 719 | 2070 | 8000 |
| 2026-05-01 03:15 | 2.45 | 164 | 8620 (2019) | 79 (2014) | 848 | 83 | 115 | 149 | 180 | 324 | 637 | 719 | 2070 | 8000 |
| 2026-05-01 02:15 | 2.45 | 164 | 8620 (2019) | 79 (2014) | 848 | 83 | 115 | 149 | 180 | 324 | 637 | 719 | 2070 | 8000 |
| 2026-05-01 01:15 | 2.46 | 166 | 8620 (2019) | 79 (2014) | 848 | 83 | 115 | 149 | 180 | 324 | 637 | 719 | 2070 | 8000 |
| 2026-05-01 00:15 | 2.46 | 166 | 8620 (2019) | 79 (2014) | 848 | 83 | 115 | 149 | 180 | 324 | 637 | 719 | 2070 | 8000 |
| 2026-04-30 23:15 | 2.47 | 168 | 8620 (2019) | 79 (2014) | 848 | 83 | 115 | 149 | 180 | 324 | 637 | 719 | 2070 | 8000 |
| 2026-04-30 22:15 | 2.46 | 166 | 10400 (2017) | 73 (2012) | 887 | 74 | 89 | 134 | 167 | 335 | 727 | 749 | 1180 | 9490 |
| 2026-04-30 21:15 | 2.47 | 168 | 10400 (2017) | 73 (2012) | 887 | 74 | 89 | 134 | 167 | 335 | 727 | 749 | 1180 | 9490 |
| 2026-04-30 20:15 | 2.47 | 168 | 10400 (2017) | 73 (2012) | 887 | 74 | 89 | 134 | 167 | 335 | 727 | 749 | 1180 | 9490 |
| 2026-04-30 19:15 | 2.49 | 172 | 10400 (2017) | 73 (2012) | 887 | 74 | 89 | 134 | 167 | 335 | 727 | 749 | 1180 | 9490 |
| 2026-04-30 18:15 | 2.49 | 172 | 10400 (2017) | 73 (2012) | 887 | 74 | 89 | 134 | 167 | 335 | 727 | 749 | 1180 | 9490 |
| 2026-04-30 17:15 | 2.50 | 174 | 10400 (2017) | 73 (2012) | 887 | 74 | 89 | 134 | 167 | 335 | 727 | 749 | 1180 | 9490 |
| 2026-04-30 16:15 | 2.51 | 176 | 10400 (2017) | 73 (2012) | 887 | 74 | 89 | 134 | 167 | 335 | 727 | 749 | 1180 | 9490 |
| 2026-04-30 15:15 | 2.51 | 176 | 10400 (2017) | 73 (2012) | 887 | 74 | 89 | 134 | 167 | 335 | 727 | 749 | 1180 | 9490 |
| 2026-04-30 14:15 | 2.52 | 178 | 10400 (2017) | 73 (2012) | 887 | 74 | 89 | 134 | 167 | 335 | 727 | 749 | 1180 | 9490 |
| 2026-04-30 13:15 | 2.52 | 178 | 10400 (2017) | 73 (2012) | 887 | 74 | 89 | 134 | 167 | 335 | 727 | 749 | 1180 | 9490 |
| 2026-04-30 12:15 | 2.54 | 183 | 10400 (2017) | 73 (2012) | 887 | 74 | 89 | 134 | 167 | 335 | 727 | 749 | 1180 | 9490 |
| 2026-04-30 11:15 | 2.53 | 181 | 10400 (2017) | 73 (2012) | 887 | 74 | 89 | 134 | 167 | 335 | 727 | 749 | 1180 | 9490 |
| 2026-04-30 10:15 | 2.53 | 181 | 10400 (2017) | 73 (2012) | 887 | 74 | 89 | 134 | 167 | 335 | 727 | 749 | 1180 | 9490 |
| 2026-04-30 09:15 | 2.53 | 181 | 10400 (2017) | 73 (2012) | 887 | 74 | 89 | 134 | 167 | 335 | 727 | 749 | 1180 | 9490 |
| 2026-04-30 08:15 | 2.55 | 185 | 10400 (2017) | 73 (2012) | 887 | 74 | 89 | 134 | 167 | 335 | 727 | 749 | 1180 | 9490 |
| 2026-04-30 07:15 | 2.56 | 187 | 10400 (2017) | 73 (2012) | 887 | 74 | 89 | 134 | 167 | 335 | 727 | 749 | 1180 | 9490 |
| 2026-04-30 06:15 | 2.54 | 183 | 10400 (2017) | 73 (2012) | 887 | 74 | 89 | 134 | 167 | 335 | 727 | 749 | 1180 | 9490 |
| 2026-04-30 05:15 | 2.54 | 183 | 10400 (2017) | 73 (2012) | 887 | 74 | 89 | 134 | 167 | 335 | 727 | 749 | 1180 | 9490 |
| 2026-04-30 04:15 | 2.55 | 185 | 10400 (2017) | 73 (2012) | 887 | 74 | 89 | 134 | 167 | 335 | 727 | 749 | 1180 | 9490 |
| 2026-04-30 03:15 | 2.56 | 187 | 10400 (2017) | 73 (2012) | 887 | 74 | 89 | 134 | 167 | 335 | 727 | 749 | 1180 | 9490 |
| 2026-04-30 02:15 | 2.56 | 187 | 10400 (2017) | 73 (2012) | 887 | 74 | 89 | 134 | 167 | 335 | 727 | 749 | 1180 | 9490 |
| 2026-04-30 01:15 | 2.56 | 187 | 10400 (2017) | 73 (2012) | 887 | 74 | 89 | 134 | 167 | 335 | 727 | 749 | 1180 | 9490 |
| 2026-04-30 00:15 | 2.57 | 189 | 10400 (2017) | 73 (2012) | 887 | 74 | 89 | 134 | 167 | 335 | 727 | 749 | 1180 | 9490 |
| 2026-04-29 23:15 | 2.58 | 191 | 10400 (2017) | 73 (2012) | 887 | 74 | 89 | 134 | 167 | 335 | 727 | 749 | 1180 | 9490 |
| 2026-04-29 22:15 | 2.58 | 191 | 13900 (2017) | 60 (2012) | 1150 | 62 | 83 | 139 | 150 | 299 | 635 | 980 | 2690 | 12800 |
| 2026-04-29 21:15 | 2.59 | 194 | 13900 (2017) | 60 (2012) | 1150 | 62 | 83 | 139 | 150 | 299 | 635 | 980 | 2690 | 12800 |
| 2026-04-29 20:15 | 2.61 | 198 | 13900 (2017) | 60 (2012) | 1150 | 62 | 83 | 139 | 150 | 299 | 635 | 980 | 2690 | 12800 |
| 2026-04-29 19:15 | 2.60 | 196 | 13900 (2017) | 60 (2012) | 1150 | 62 | 83 | 139 | 150 | 299 | 635 | 980 | 2690 | 12800 |
| 2026-04-29 18:15 | 2.61 | 198 | 13900 (2017) | 60 (2012) | 1150 | 62 | 83 | 139 | 150 | 299 | 635 | 980 | 2690 | 12800 |
| 2026-04-29 17:15 | 2.63 | 203 | 13900 (2017) | 60 (2012) | 1150 | 62 | 83 | 139 | 150 | 299 | 635 | 980 | 2690 | 12800 |
| 2026-04-29 16:15 | 2.64 | 205 | 13900 (2017) | 60 (2012) | 1150 | 62 | 83 | 139 | 150 | 299 | 635 | 980 | 2690 | 12800 |
| 2026-04-29 15:15 | 2.63 | 203 | 13900 (2017) | 60 (2012) | 1150 | 62 | 83 | 139 | 150 | 299 | 635 | 980 | 2690 | 12800 |
| 2026-04-29 14:15 | 2.64 | 205 | 13900 (2017) | 60 (2012) | 1150 | 62 | 83 | 139 | 150 | 299 | 635 | 980 | 2690 | 12800 |
| 2026-04-29 13:15 | 2.65 | 207 | 13900 (2017) | 60 (2012) | 1150 | 62 | 83 | 139 | 150 | 299 | 635 | 980 | 2690 | 12800 |
| 2026-04-29 12:15 | 2.66 | 210 | 13900 (2017) | 60 (2012) | 1150 | 62 | 83 | 139 | 150 | 299 | 635 | 980 | 2690 | 12800 |
| 2026-04-29 11:15 | 2.66 | 210 | 13900 (2017) | 60 (2012) | 1150 | 62 | 83 | 139 | 150 | 299 | 635 | 980 | 2690 | 12800 |
| 2026-04-29 10:15 | 2.67 | 212 | 13900 (2017) | 60 (2012) | 1150 | 62 | 83 | 139 | 150 | 299 | 635 | 980 | 2690 | 12800 |
| 2026-04-29 09:15 | 2.68 | 214 | 13900 (2017) | 60 (2012) | 1150 | 62 | 83 | 139 | 150 | 299 | 635 | 980 | 2690 | 12800 |
| 2026-04-29 08:15 | 2.67 | 212 | 13900 (2017) | 60 (2012) | 1150 | 62 | 83 | 139 | 150 | 299 | 635 | 980 | 2690 | 12800 |
| 2026-04-29 07:15 | 2.68 | 214 | 13900 (2017) | 60 (2012) | 1150 | 62 | 83 | 139 | 150 | 299 | 635 | 980 | 2690 | 12800 |
| 2026-04-29 06:15 | 2.67 | 212 | 13900 (2017) | 60 (2012) | 1150 | 62 | 83 | 139 | 150 | 299 | 635 | 980 | 2690 | 12800 |
| 2026-04-29 05:15 | 2.68 | 214 | 13900 (2017) | 60 (2012) | 1150 | 62 | 83 | 139 | 150 | 299 | 635 | 980 | 2690 | 12800 |
| 2026-04-29 04:15 | 2.69 | 217 | 13900 (2017) | 60 (2012) | 1150 | 62 | 83 | 139 | 150 | 299 | 635 | 980 | 2690 | 12800 |
| 2026-04-29 03:15 | 2.70 | 219 | 13900 (2017) | 60 (2012) | 1150 | 62 | 83 | 139 | 150 | 299 | 635 | 980 | 2690 | 12800 |
| 2026-04-29 02:15 | 2.71 | 222 | 13900 (2017) | 60 (2012) | 1150 | 62 | 83 | 139 | 150 | 299 | 635 | 980 | 2690 | 12800 |
| 2026-04-29 01:15 | 2.71 | 222 | 13900 (2017) | 60 (2012) | 1150 | 62 | 83 | 139 | 150 | 299 | 635 | 980 | 2690 | 12800 |
| 2026-04-29 00:15 | 2.71 | 222 | 13900 (2017) | 60 (2012) | 1150 | 62 | 83 | 139 | 150 | 299 | 635 | 980 | 2690 | 12800 |
| 2026-04-28 23:15 | 2.70 | 219 | 13900 (2017) | 60 (2012) | 1150 | 62 | 83 | 139 | 150 | 299 | 635 | 980 | 2690 | 12800 |
| 2026-04-28 22:15 | 2.70 | 219 | 3580 (2021) | 62 (2012) | 519 | 65 | 93 | 124 | 155 | 282 | 481 | 542 | 1530 | 3390 |
| 2026-04-28 21:15 | 2.70 | 219 | 3580 (2021) | 62 (2012) | 519 | 65 | 93 | 124 | 155 | 282 | 481 | 542 | 1530 | 3390 |
| 2026-04-28 20:15 | 2.70 | 219 | 3580 (2021) | 62 (2012) | 519 | 65 | 93 | 124 | 155 | 282 | 481 | 542 | 1530 | 3390 |
| 2026-04-28 19:15 | 2.71 | 222 | 3580 (2021) | 62 (2012) | 519 | 65 | 93 | 124 | 155 | 282 | 481 | 542 | 1530 | 3390 |
| 2026-04-28 18:15 | 2.72 | 224 | 3580 (2021) | 62 (2012) | 519 | 65 | 93 | 124 | 155 | 282 | 481 | 542 | 1530 | 3390 |
| 2026-04-28 17:15 | 2.71 | 222 | 3580 (2021) | 62 (2012) | 519 | 65 | 93 | 124 | 155 | 282 | 481 | 542 | 1530 | 3390 |
| 2026-04-28 16:15 | 2.72 | 224 | 3580 (2021) | 62 (2012) | 519 | 65 | 93 | 124 | 155 | 282 | 481 | 542 | 1530 | 3390 |
| 2026-04-28 15:15 | 2.73 | 227 | 3580 (2021) | 62 (2012) | 519 | 65 | 93 | 124 | 155 | 282 | 481 | 542 | 1530 | 3390 |
| 2026-04-28 14:15 | 2.71 | 222 | 3580 (2021) | 62 (2012) | 519 | 65 | 93 | 124 | 155 | 282 | 481 | 542 | 1530 | 3390 |
| 2026-04-28 13:15 | 2.70 | 219 | 3580 (2021) | 62 (2012) | 519 | 65 | 93 | 124 | 155 | 282 | 481 | 542 | 1530 | 3390 |
| 2026-04-28 12:15 | 2.71 | 222 | 3580 (2021) | 62 (2012) | 519 | 65 | 93 | 124 | 155 | 282 | 481 | 542 | 1530 | 3390 |
| 2026-04-28 11:15 | 2.72 | 224 | 3580 (2021) | 62 (2012) | 519 | 65 | 93 | 124 | 155 | 282 | 481 | 542 | 1530 | 3390 |
| 2026-04-28 10:15 | 2.73 | 227 | 3580 (2021) | 62 (2012) | 519 | 65 | 93 | 124 | 155 | 282 | 481 | 542 | 1530 | 3390 |
| 2026-04-28 09:15 | 2.72 | 224 | 3580 (2021) | 62 (2012) | 519 | 65 | 93 | 124 | 155 | 282 | 481 | 542 | 1530 | 3390 |
| 2026-04-28 08:15 | 2.73 | 227 | 3580 (2021) | 62 (2012) | 519 | 65 | 93 | 124 | 155 | 282 | 481 | 542 | 1530 | 3390 |
| 2026-04-28 07:15 | 2.74 | 229 | 3580 (2021) | 62 (2012) | 519 | 65 | 93 | 124 | 155 | 282 | 481 | 542 | 1530 | 3390 |
| 2026-04-28 06:15 | 2.76 | 234 | 3580 (2021) | 62 (2012) | 519 | 65 | 93 | 124 | 155 | 282 | 481 | 542 | 1530 | 3390 |
| 2026-04-28 05:15 | 2.76 | 234 | 3580 (2021) | 62 (2012) | 519 | 65 | 93 | 124 | 155 | 282 | 481 | 542 | 1530 | 3390 |
| 2026-04-28 04:15 | 2.76 | 234 | 3580 (2021) | 62 (2012) | 519 | 65 | 93 | 124 | 155 | 282 | 481 | 542 | 1530 | 3390 |
| 2026-04-28 03:15 | 2.78 | 239 | 3580 (2021) | 62 (2012) | 519 | 65 | 93 | 124 | 155 | 282 | 481 | 542 | 1530 | 3390 |
| 2026-04-28 02:15 | 2.79 | 242 | 3580 (2021) | 62 (2012) | 519 | 65 | 93 | 124 | 155 | 282 | 481 | 542 | 1530 | 3390 |
| 2026-04-28 01:15 | 2.81 | 247 | 3580 (2021) | 62 (2012) | 519 | 65 | 93 | 124 | 155 | 282 | 481 | 542 | 1530 | 3390 |
| 2026-04-28 00:15 | 2.82 | 250 | 3580 (2021) | 62 (2012) | 519 | 65 | 93 | 124 | 155 | 282 | 481 | 542 | 1530 | 3390 |
| 2026-04-27 23:15 | 2.82 | 250 | 3580 (2021) | 62 (2012) | 519 | 65 | 93 | 124 | 155 | 282 | 481 | 542 | 1530 | 3390 |
| 2026-04-27 22:15 | 2.82 | 250 | 2940 (2011) | 63 (2012) | 434 | 66 | 95 | 130 | 147 | 268 | 458 | 570 | 861 | 2740 |
| 2026-04-27 21:15 | 2.82 | 250 | 2940 (2011) | 63 (2012) | 434 | 66 | 95 | 130 | 147 | 268 | 458 | 570 | 861 | 2740 |
| 2026-04-27 20:15 | 2.83 | 253 | 2940 (2011) | 63 (2012) | 434 | 66 | 95 | 130 | 147 | 268 | 458 | 570 | 861 | 2740 |
| 2026-04-27 19:15 | 2.85 | 258 | 2940 (2011) | 63 (2012) | 434 | 66 | 95 | 130 | 147 | 268 | 458 | 570 | 861 | 2740 |
| 2026-04-27 18:15 | 2.87 | 264 | 2940 (2011) | 63 (2012) | 434 | 66 | 95 | 130 | 147 | 268 | 458 | 570 | 861 | 2740 |
| 2026-04-27 17:15 | 2.87 | 264 | 2940 (2011) | 63 (2012) | 434 | 66 | 95 | 130 | 147 | 268 | 458 | 570 | 861 | 2740 |
| 2026-04-27 16:15 | 2.85 | 258 | 2940 (2011) | 63 (2012) | 434 | 66 | 95 | 130 | 147 | 268 | 458 | 570 | 861 | 2740 |
| 2026-04-27 15:15 | 2.87 | 264 | 2940 (2011) | 63 (2012) | 434 | 66 | 95 | 130 | 147 | 268 | 458 | 570 | 861 | 2740 |
| 2026-04-27 14:15 | 2.87 | 264 | 2940 (2011) | 63 (2012) | 434 | 66 | 95 | 130 | 147 | 268 | 458 | 570 | 861 | 2740 |
| 2026-04-27 13:15 | 2.90 | 272 | 2940 (2011) | 63 (2012) | 434 | 66 | 95 | 130 | 147 | 268 | 458 | 570 | 861 | 2740 |
| 2026-04-27 12:15 | 2.88 | 266 | 2940 (2011) | 63 (2012) | 434 | 66 | 95 | 130 | 147 | 268 | 458 | 570 | 861 | 2740 |
| 2026-04-27 11:15 | 2.89 | 269 | 2940 (2011) | 63 (2012) | 434 | 66 | 95 | 130 | 147 | 268 | 458 | 570 | 861 | 2740 |
| 2026-04-27 10:15 | 2.89 | 269 | 2940 (2011) | 63 (2012) | 434 | 66 | 95 | 130 | 147 | 268 | 458 | 570 | 861 | 2740 |
| 2026-04-27 09:15 | 2.90 | 272 | 2940 (2011) | 63 (2012) | 434 | 66 | 95 | 130 | 147 | 268 | 458 | 570 | 861 | 2740 |
| 2026-04-27 08:15 | 2.91 | 275 | 2940 (2011) | 63 (2012) | 434 | 66 | 95 | 130 | 147 | 268 | 458 | 570 | 861 | 2740 |
| 2026-04-27 07:15 | 2.90 | 272 | 2940 (2011) | 63 (2012) | 434 | 66 | 95 | 130 | 147 | 268 | 458 | 570 | 861 | 2740 |
| 2026-04-27 06:15 | 2.93 | 281 | 2940 (2011) | 63 (2012) | 434 | 66 | 95 | 130 | 147 | 268 | 458 | 570 | 861 | 2740 |
| 2026-04-27 05:15 | 2.95 | 286 | 2940 (2011) | 63 (2012) | 434 | 66 | 95 | 130 | 147 | 268 | 458 | 570 | 861 | 2740 |
| 2026-04-27 04:15 | 2.96 | 289 | 2940 (2011) | 63 (2012) | 434 | 66 | 95 | 130 | 147 | 268 | 458 | 570 | 861 | 2740 |
| 2026-04-27 03:15 | 2.97 | 292 | 2940 (2011) | 63 (2012) | 434 | 66 | 95 | 130 | 147 | 268 | 458 | 570 | 861 | 2740 |
| 2026-04-27 02:15 | 2.98 | 295 | 2940 (2011) | 63 (2012) | 434 | 66 | 95 | 130 | 147 | 268 | 458 | 570 | 861 | 2740 |
| 2026-04-27 01:15 | 2.99 | 298 | 2940 (2011) | 63 (2012) | 434 | 66 | 95 | 130 | 147 | 268 | 458 | 570 | 861 | 2740 |
| 2026-04-27 00:15 | 3.00 | 302 | 2940 (2011) | 63 (2012) | 434 | 66 | 95 | 130 | 147 | 268 | 458 | 570 | 861 | 2740 |
| 2026-04-26 23:15 | 3.01 | 305 | 2940 (2011) | 63 (2012) | 434 | 66 | 95 | 130 | 147 | 268 | 458 | 570 | 861 | 2740 |
| 2026-04-26 22:15 | 3.02 | 308 | 7830 (2011) | 68 (2012) | 675 | 70 | 87 | 116 | 148 | 286 | 536 | 648 | 754 | 7120 |
| 2026-04-26 21:15 | 3.04 | 314 | 7830 (2011) | 68 (2012) | 675 | 70 | 87 | 116 | 148 | 286 | 536 | 648 | 754 | 7120 |
| 2026-04-26 20:15 | 3.05 | 317 | 7830 (2011) | 68 (2012) | 675 | 70 | 87 | 116 | 148 | 286 | 536 | 648 | 754 | 7120 |
| 2026-04-26 19:15 | 3.05 | 317 | 7830 (2011) | 68 (2012) | 675 | 70 | 87 | 116 | 148 | 286 | 536 | 648 | 754 | 7120 |
| 2026-04-26 18:15 | 3.06 | 320 | 7830 (2011) | 68 (2012) | 675 | 70 | 87 | 116 | 148 | 286 | 536 | 648 | 754 | 7120 |
| 2026-04-26 17:15 | 3.07 | 324 | 7830 (2011) | 68 (2012) | 675 | 70 | 87 | 116 | 148 | 286 | 536 | 648 | 754 | 7120 |
| 2026-04-26 16:15 | 3.12 | 340 | 7830 (2011) | 68 (2012) | 675 | 70 | 87 | 116 | 148 | 286 | 536 | 648 | 754 | 7120 |
| 2026-04-26 15:15 | 3.14 | 347 | 7830 (2011) | 68 (2012) | 675 | 70 | 87 | 116 | 148 | 286 | 536 | 648 | 754 | 7120 |
| 2026-04-26 14:15 | 3.15 | 350 | 7830 (2011) | 68 (2012) | 675 | 70 | 87 | 116 | 148 | 286 | 536 | 648 | 754 | 7120 |
| 2026-04-26 13:15 | 3.17 | 357 | 7830 (2011) | 68 (2012) | 675 | 70 | 87 | 116 | 148 | 286 | 536 | 648 | 754 | 7120 |
| 2026-04-26 12:15 | 3.17 | 357 | 7830 (2011) | 68 (2012) | 675 | 70 | 87 | 116 | 148 | 286 | 536 | 648 | 754 | 7120 |
| 2026-04-26 11:15 | 3.18 | 360 | 7830 (2011) | 68 (2012) | 675 | 70 | 87 | 116 | 148 | 286 | 536 | 648 | 754 | 7120 |
| 2026-04-26 10:15 | 3.19 | 364 | 7830 (2011) | 68 (2012) | 675 | 70 | 87 | 116 | 148 | 286 | 536 | 648 | 754 | 7120 |
| 2026-04-26 09:15 | 3.19 | 364 | 7830 (2011) | 68 (2012) | 675 | 70 | 87 | 116 | 148 | 286 | 536 | 648 | 754 | 7120 |
| 2026-04-26 08:15 | 3.21 | 371 | 7830 (2011) | 68 (2012) | 675 | 70 | 87 | 116 | 148 | 286 | 536 | 648 | 754 | 7120 |
| 2026-04-26 07:15 | 3.22 | 375 | 7830 (2011) | 68 (2012) | 675 | 70 | 87 | 116 | 148 | 286 | 536 | 648 | 754 | 7120 |
| 2026-04-26 06:15 | 3.23 | 378 | 7830 (2011) | 68 (2012) | 675 | 70 | 87 | 116 | 148 | 286 | 536 | 648 | 754 | 7120 |
| 2026-04-26 05:15 | 3.25 | 385 | 7830 (2011) | 68 (2012) | 675 | 70 | 87 | 116 | 148 | 286 | 536 | 648 | 754 | 7120 |
| 2026-04-26 04:15 | 3.27 | 393 | 7830 (2011) | 68 (2012) | 675 | 70 | 87 | 116 | 148 | 286 | 536 | 648 | 754 | 7120 |
| 2026-04-26 03:15 | 3.27 | 393 | 7830 (2011) | 68 (2012) | 675 | 70 | 87 | 116 | 148 | 286 | 536 | 648 | 754 | 7120 |
| 2026-04-26 02:15 | 3.29 | 400 | 7830 (2011) | 68 (2012) | 675 | 70 | 87 | 116 | 148 | 286 | 536 | 648 | 754 | 7120 |
| 2026-04-26 01:15 | 3.31 | 408 | 7830 (2011) | 68 (2012) | 675 | 70 | 87 | 116 | 148 | 286 | 536 | 648 | 754 | 7120 |
| 2026-04-26 00:15 | 3.32 | 412 | 7830 (2011) | 68 (2012) | 675 | 70 | 87 | 116 | 148 | 286 | 536 | 648 | 754 | 7120 |
| 2026-04-25 23:15 | 3.34 | 419 | 7830 (2011) | 68 (2012) | 675 | 70 | 87 | 116 | 148 | 286 | 536 | 648 | 754 | 7120 |
| 2026-04-25 22:15 | 3.36 | 427 | 17500 (2011) | 70 (2024) | 1150 | 70 | 75 | 119 | 147 | 277 | 538 | 732 | 872 | 15800 |
| 2026-04-25 21:15 | 3.37 | 431 | 17500 (2011) | 70 (2024) | 1150 | 70 | 75 | 119 | 147 | 277 | 538 | 732 | 872 | 15800 |
| 2026-04-25 20:15 | 3.41 | 447 | 17500 (2011) | 70 (2024) | 1150 | 70 | 75 | 119 | 147 | 277 | 538 | 732 | 872 | 15800 |
| 2026-04-25 19:15 | 3.42 | 451 | 17500 (2011) | 70 (2024) | 1150 | 70 | 75 | 119 | 147 | 277 | 538 | 732 | 872 | 15800 |
| 2026-04-25 18:15 | 3.45 | 464 | 17500 (2011) | 70 (2024) | 1150 | 70 | 75 | 119 | 147 | 277 | 538 | 732 | 872 | 15800 |
| 2026-04-25 17:15 | 3.46 | 468 | 17500 (2011) | 70 (2024) | 1150 | 70 | 75 | 119 | 147 | 277 | 538 | 732 | 872 | 15800 |
| 2026-04-25 16:15 | 3.49 | 481 | 17500 (2011) | 70 (2024) | 1150 | 70 | 75 | 119 | 147 | 277 | 538 | 732 | 872 | 15800 |
| 2026-04-25 15:15 | 3.51 | 489 | 17500 (2011) | 70 (2024) | 1150 | 70 | 75 | 119 | 147 | 277 | 538 | 732 | 872 | 15800 |
| 2026-04-25 14:15 | 3.53 | 498 | 17500 (2011) | 70 (2024) | 1150 | 70 | 75 | 119 | 147 | 277 | 538 | 732 | 872 | 15800 |
| 2026-04-25 13:15 | 3.55 | 507 | 17500 (2011) | 70 (2024) | 1150 | 70 | 75 | 119 | 147 | 277 | 538 | 732 | 872 | 15800 |
| 2026-04-25 12:15 | 3.57 | 516 | 17500 (2011) | 70 (2024) | 1150 | 70 | 75 | 119 | 147 | 277 | 538 | 732 | 872 | 15800 |
| 2026-04-25 11:15 | 3.59 | 525 | 17500 (2011) | 70 (2024) | 1150 | 70 | 75 | 119 | 147 | 277 | 538 | 732 | 872 | 15800 |
| 2026-04-25 10:15 | 3.59 | 525 | 17500 (2011) | 70 (2024) | 1150 | 70 | 75 | 119 | 147 | 277 | 538 | 732 | 872 | 15800 |
| 2026-04-25 09:15 | 3.60 | 530 | 17500 (2011) | 70 (2024) | 1150 | 70 | 75 | 119 | 147 | 277 | 538 | 732 | 872 | 15800 |
| 2026-04-25 08:15 | 3.63 | 543 | 17500 (2011) | 70 (2024) | 1150 | 70 | 75 | 119 | 147 | 277 | 538 | 732 | 872 | 15800 |
| 2026-04-25 07:15 | 3.64 | 548 | 17500 (2011) | 70 (2024) | 1150 | 70 | 75 | 119 | 147 | 277 | 538 | 732 | 872 | 15800 |
| 2026-04-25 06:15 | 3.67 | 562 | 17500 (2011) | 70 (2024) | 1150 | 70 | 75 | 119 | 147 | 277 | 538 | 732 | 872 | 15800 |
| 2026-04-25 05:15 | 3.68 | 567 | 17500 (2011) | 70 (2024) | 1150 | 70 | 75 | 119 | 147 | 277 | 538 | 732 | 872 | 15800 |
| 2026-04-25 04:15 | 3.71 | 582 | 17500 (2011) | 70 (2024) | 1150 | 70 | 75 | 119 | 147 | 277 | 538 | 732 | 872 | 15800 |
| 2026-04-25 03:15 | 3.73 | 592 | 17500 (2011) | 70 (2024) | 1150 | 70 | 75 | 119 | 147 | 277 | 538 | 732 | 872 | 15800 |
| 2026-04-25 02:15 | 3.76 | 606 | 17500 (2011) | 70 (2024) | 1150 | 70 | 75 | 119 | 147 | 277 | 538 | 732 | 872 | 15800 |
| 2026-04-25 01:15 | 3.78 | 614 | 17500 (2011) | 70 (2024) | 1150 | 70 | 75 | 119 | 147 | 277 | 538 | 732 | 872 | 15800 |
| 2026-04-25 00:15 | 3.82 | 630 | 17500 (2011) | 70 (2024) | 1150 | 70 | 75 | 119 | 147 | 277 | 538 | 732 | 872 | 15800 |
| 2026-04-24 23:15 | 3.84 | 638 | 17500 (2011) | 70 (2024) | 1150 | 70 | 75 | 119 | 147 | 277 | 538 | 732 | 872 | 15800 |
| 2026-04-24 22:15 | 3.88 | 654 | 4210 (2011) | 29 (2006) | 505 | 33 | 68 | 92 | 98 | 263 | 481 | 707 | 1060 | 3900 |
| 2026-04-24 21:15 | 3.90 | 663 | 4210 (2011) | 29 (2006) | 505 | 33 | 68 | 92 | 98 | 263 | 481 | 707 | 1060 | 3900 |
| 2026-04-24 20:15 | 3.93 | 676 | 4210 (2011) | 29 (2006) | 505 | 33 | 68 | 92 | 98 | 263 | 481 | 707 | 1060 | 3900 |
| 2026-04-24 19:15 | 3.95 | 684 | 4210 (2011) | 29 (2006) | 505 | 33 | 68 | 92 | 98 | 263 | 481 | 707 | 1060 | 3900 |
| 2026-04-24 18:15 | 3.98 | 697 | 4210 (2011) | 29 (2006) | 505 | 33 | 68 | 92 | 98 | 263 | 481 | 707 | 1060 | 3900 |
| 2026-04-24 17:15 | 3.99 | 701 | 4210 (2011) | 29 (2006) | 505 | 33 | 68 | 92 | 98 | 263 | 481 | 707 | 1060 | 3900 |
| 2026-04-24 16:15 | 3.99 | 701 | 4210 (2011) | 29 (2006) | 505 | 33 | 68 | 92 | 98 | 263 | 481 | 707 | 1060 | 3900 |
| 2026-04-24 15:15 | 3.93 | 676 | 4210 (2011) | 29 (2006) | 505 | 33 | 68 | 92 | 98 | 263 | 481 | 707 | 1060 | 3900 |
| 2026-04-24 14:15 | 3.81 | 626 | 4210 (2011) | 29 (2006) | 505 | 33 | 68 | 92 | 98 | 263 | 481 | 707 | 1060 | 3900 |
| 2026-04-24 13:15 | 3.61 | 534 | 4210 (2011) | 29 (2006) | 505 | 33 | 68 | 92 | 98 | 263 | 481 | 707 | 1060 | 3900 |
| 2026-04-24 12:15 | 3.37 | 431 | 4210 (2011) | 29 (2006) | 505 | 33 | 68 | 92 | 98 | 263 | 481 | 707 | 1060 | 3900 |
| 2026-04-24 11:15 | 3.18 | 360 | 4210 (2011) | 29 (2006) | 505 | 33 | 68 | 92 | 98 | 263 | 481 | 707 | 1060 | 3900 |
| 2026-04-24 10:15 | 3.06 | 320 | 4210 (2011) | 29 (2006) | 505 | 33 | 68 | 92 | 98 | 263 | 481 | 707 | 1060 | 3900 |
| 2026-04-24 09:15 | 2.95 | 286 | 4210 (2011) | 29 (2006) | 505 | 33 | 68 | 92 | 98 | 263 | 481 | 707 | 1060 | 3900 |
| 2026-04-24 08:15 | 2.84 | 255 | 4210 (2011) | 29 (2006) | 505 | 33 | 68 | 92 | 98 | 263 | 481 | 707 | 1060 | 3900 |
| 2026-04-24 07:15 | 2.74 | 229 | 4210 (2011) | 29 (2006) | 505 | 33 | 68 | 92 | 98 | 263 | 481 | 707 | 1060 | 3900 |
| 2026-04-24 06:15 | 2.66 | 210 | 4210 (2011) | 29 (2006) | 505 | 33 | 68 | 92 | 98 | 263 | 481 | 707 | 1060 | 3900 |
| 2026-04-24 05:15 | 2.59 | 194 | 4210 (2011) | 29 (2006) | 505 | 33 | 68 | 92 | 98 | 263 | 481 | 707 | 1060 | 3900 |
| 2026-04-24 04:15 | 2.58 | 191 | 4210 (2011) | 29 (2006) | 505 | 33 | 68 | 92 | 98 | 263 | 481 | 707 | 1060 | 3900 |
| 2026-04-24 03:15 | 2.57 | 189 | 4210 (2011) | 29 (2006) | 505 | 33 | 68 | 92 | 98 | 263 | 481 | 707 | 1060 | 3900 |
| 2026-04-24 02:15 | 2.55 | 185 | 4210 (2011) | 29 (2006) | 505 | 33 | 68 | 92 | 98 | 263 | 481 | 707 | 1060 | 3900 |
| 2026-04-24 01:15 | 2.48 | 170 | 4210 (2011) | 29 (2006) | 505 | 33 | 68 | 92 | 98 | 263 | 481 | 707 | 1060 | 3900 |
| 2026-04-24 00:15 | 2.49 | 172 | 4210 (2011) | 29 (2006) | 505 | 33 | 68 | 92 | 98 | 263 | 481 | 707 | 1060 | 3900 |
| 2026-04-23 23:15 | 2.49 | 172 | 4210 (2011) | 29 (2006) | 505 | 33 | 68 | 92 | 98 | 263 | 481 | 707 | 1060 | 3900 |
| 2026-04-23 22:15 | 2.49 | 172 | 3030 (2011) | 24 (2006) | 469 | 28 | 70 | 97 | 101 | 275 | 494 | 720 | 1270 | 2860 |
| 2026-04-23 21:15 | 2.50 | 174 | 3030 (2011) | 24 (2006) | 469 | 28 | 70 | 97 | 101 | 275 | 494 | 720 | 1270 | 2860 |
| 2026-04-23 20:15 | 2.50 | 174 | 3030 (2011) | 24 (2006) | 469 | 28 | 70 | 97 | 101 | 275 | 494 | 720 | 1270 | 2860 |
| 2026-04-23 19:15 | 2.51 | 176 | 3030 (2011) | 24 (2006) | 469 | 28 | 70 | 97 | 101 | 275 | 494 | 720 | 1270 | 2860 |
| 2026-04-23 18:15 | 2.51 | 176 | 3030 (2011) | 24 (2006) | 469 | 28 | 70 | 97 | 101 | 275 | 494 | 720 | 1270 | 2860 |
| 2026-04-23 17:15 | 2.49 | 172 | 3030 (2011) | 24 (2006) | 469 | 28 | 70 | 97 | 101 | 275 | 494 | 720 | 1270 | 2860 |
| 2026-04-23 16:15 | 2.52 | 178 | 3030 (2011) | 24 (2006) | 469 | 28 | 70 | 97 | 101 | 275 | 494 | 720 | 1270 | 2860 |
| 2026-04-23 15:15 | 2.51 | 176 | 3030 (2011) | 24 (2006) | 469 | 28 | 70 | 97 | 101 | 275 | 494 | 720 | 1270 | 2860 |
| 2026-04-23 14:15 | 2.53 | 181 | 3030 (2011) | 24 (2006) | 469 | 28 | 70 | 97 | 101 | 275 | 494 | 720 | 1270 | 2860 |
| 2026-04-23 13:15 | 2.54 | 183 | 3030 (2011) | 24 (2006) | 469 | 28 | 70 | 97 | 101 | 275 | 494 | 720 | 1270 | 2860 |
| 2026-04-23 12:15 | 2.53 | 181 | 3030 (2011) | 24 (2006) | 469 | 28 | 70 | 97 | 101 | 275 | 494 | 720 | 1270 | 2860 |
| 2026-04-23 11:15 | 2.54 | 183 | 3030 (2011) | 24 (2006) | 469 | 28 | 70 | 97 | 101 | 275 | 494 | 720 | 1270 | 2860 |
| 2026-04-23 10:15 | 2.55 | 185 | 3030 (2011) | 24 (2006) | 469 | 28 | 70 | 97 | 101 | 275 | 494 | 720 | 1270 | 2860 |
| 2026-04-23 09:15 | 2.56 | 187 | 3030 (2011) | 24 (2006) | 469 | 28 | 70 | 97 | 101 | 275 | 494 | 720 | 1270 | 2860 |
| 2026-04-23 08:15 | 2.57 | 189 | 3030 (2011) | 24 (2006) | 469 | 28 | 70 | 97 | 101 | 275 | 494 | 720 | 1270 | 2860 |
| 2026-04-23 07:15 | 2.57 | 189 | 3030 (2011) | 24 (2006) | 469 | 28 | 70 | 97 | 101 | 275 | 494 | 720 | 1270 | 2860 |
| 2026-04-23 06:15 | 2.57 | 189 | 3030 (2011) | 24 (2006) | 469 | 28 | 70 | 97 | 101 | 275 | 494 | 720 | 1270 | 2860 |
| 2026-04-23 05:15 | 2.58 | 191 | 3030 (2011) | 24 (2006) | 469 | 28 | 70 | 97 | 101 | 275 | 494 | 720 | 1270 | 2860 |
| 2026-04-23 04:15 | 2.59 | 194 | 3030 (2011) | 24 (2006) | 469 | 28 | 70 | 97 | 101 | 275 | 494 | 720 | 1270 | 2860 |
| 2026-04-23 03:15 | 2.59 | 194 | 3030 (2011) | 24 (2006) | 469 | 28 | 70 | 97 | 101 | 275 | 494 | 720 | 1270 | 2860 |
| 2026-04-23 02:15 | 2.60 | 196 | 3030 (2011) | 24 (2006) | 469 | 28 | 70 | 97 | 101 | 275 | 494 | 720 | 1270 | 2860 |
| 2026-04-23 01:15 | 2.60 | 196 | 3030 (2011) | 24 (2006) | 469 | 28 | 70 | 97 | 101 | 275 | 494 | 720 | 1270 | 2860 |
| 2026-04-23 00:15 | 2.61 | 198 | 3030 (2011) | 24 (2006) | 469 | 28 | 70 | 97 | 101 | 275 | 494 | 720 | 1270 | 2860 |
| 2026-04-22 23:15 | 2.62 | 200 | 3030 (2011) | 24 (2006) | 469 | 28 | 70 | 97 | 101 | 275 | 494 | 720 | 1270 | 2860 |
| 2026-04-22 22:15 | 2.62 | 200 | 4320 (2017) | 24 (2006) | 538 | 29 | 74 | 101 | 108 | 251 | 421 | 478 | 1530 | 4050 |
| 2026-04-22 21:15 | 2.63 | 203 | 4320 (2017) | 24 (2006) | 538 | 29 | 74 | 101 | 108 | 251 | 421 | 478 | 1530 | 4050 |
| 2026-04-22 20:15 | 2.64 | 205 | 4320 (2017) | 24 (2006) | 538 | 29 | 74 | 101 | 108 | 251 | 421 | 478 | 1530 | 4050 |
| 2026-04-22 19:15 | 2.65 | 207 | 4320 (2017) | 24 (2006) | 538 | 29 | 74 | 101 | 108 | 251 | 421 | 478 | 1530 | 4050 |
| 2026-04-22 18:15 | 2.65 | 207 | 4320 (2017) | 24 (2006) | 538 | 29 | 74 | 101 | 108 | 251 | 421 | 478 | 1530 | 4050 |
| 2026-04-22 17:15 | 2.67 | 212 | 4320 (2017) | 24 (2006) | 538 | 29 | 74 | 101 | 108 | 251 | 421 | 478 | 1530 | 4050 |
| 2026-04-22 16:15 | 2.67 | 212 | 4320 (2017) | 24 (2006) | 538 | 29 | 74 | 101 | 108 | 251 | 421 | 478 | 1530 | 4050 |
| 2026-04-22 15:15 | 2.67 | 212 | 4320 (2017) | 24 (2006) | 538 | 29 | 74 | 101 | 108 | 251 | 421 | 478 | 1530 | 4050 |
| 2026-04-22 14:15 | 2.67 | 212 | 4320 (2017) | 24 (2006) | 538 | 29 | 74 | 101 | 108 | 251 | 421 | 478 | 1530 | 4050 |
| 2026-04-22 13:15 | 2.68 | 214 | 4320 (2017) | 24 (2006) | 538 | 29 | 74 | 101 | 108 | 251 | 421 | 478 | 1530 | 4050 |
| 2026-04-22 12:15 | 2.68 | 214 | 4320 (2017) | 24 (2006) | 538 | 29 | 74 | 101 | 108 | 251 | 421 | 478 | 1530 | 4050 |
| 2026-04-22 11:15 | 2.68 | 214 | 4320 (2017) | 24 (2006) | 538 | 29 | 74 | 101 | 108 | 251 | 421 | 478 | 1530 | 4050 |
| 2026-04-22 10:15 | 2.70 | 219 | 4320 (2017) | 24 (2006) | 538 | 29 | 74 | 101 | 108 | 251 | 421 | 478 | 1530 | 4050 |
| 2026-04-22 09:15 | 2.69 | 217 | 4320 (2017) | 24 (2006) | 538 | 29 | 74 | 101 | 108 | 251 | 421 | 478 | 1530 | 4050 |
| 2026-04-22 08:15 | 2.70 | 219 | 4320 (2017) | 24 (2006) | 538 | 29 | 74 | 101 | 108 | 251 | 421 | 478 | 1530 | 4050 |
| 2026-04-22 07:15 | 2.71 | 222 | 4320 (2017) | 24 (2006) | 538 | 29 | 74 | 101 | 108 | 251 | 421 | 478 | 1530 | 4050 |
| 2026-04-22 06:15 | 2.72 | 224 | 4320 (2017) | 24 (2006) | 538 | 29 | 74 | 101 | 108 | 251 | 421 | 478 | 1530 | 4050 |
| 2026-04-22 05:15 | 2.72 | 224 | 4320 (2017) | 24 (2006) | 538 | 29 | 74 | 101 | 108 | 251 | 421 | 478 | 1530 | 4050 |
| 2026-04-22 04:15 | 2.73 | 227 | 4320 (2017) | 24 (2006) | 538 | 29 | 74 | 101 | 108 | 251 | 421 | 478 | 1530 | 4050 |
| 2026-04-22 03:15 | 2.74 | 229 | 4320 (2017) | 24 (2006) | 538 | 29 | 74 | 101 | 108 | 251 | 421 | 478 | 1530 | 4050 |
| 2026-04-22 02:15 | 2.75 | 232 | 4320 (2017) | 24 (2006) | 538 | 29 | 74 | 101 | 108 | 251 | 421 | 478 | 1530 | 4050 |
| 2026-04-22 01:15 | 2.75 | 232 | 4320 (2017) | 24 (2006) | 538 | 29 | 74 | 101 | 108 | 251 | 421 | 478 | 1530 | 4050 |
| 2026-04-22 00:15 | 2.76 | 234 | 4320 (2017) | 24 (2006) | 538 | 29 | 74 | 101 | 108 | 251 | 421 | 478 | 1530 | 4050 |
| 2026-04-21 23:15 | 2.77 | 237 | 4320 (2017) | 24 (2006) | 538 | 29 | 74 | 101 | 108 | 251 | 421 | 478 | 1530 | 4050 |
| 2026-04-21 22:15 | 2.77 | 237 | 2830 (2025) | 26 (2006) | 464 | 31 | 78 | 100 | 111 | 221 | 416 | 539 | 1820 | 2760 |
| 2026-04-21 21:15 | 2.79 | 242 | 2830 (2025) | 26 (2006) | 464 | 31 | 78 | 100 | 111 | 221 | 416 | 539 | 1820 | 2760 |
| 2026-04-21 20:15 | 2.80 | 245 | 2830 (2025) | 26 (2006) | 464 | 31 | 78 | 100 | 111 | 221 | 416 | 539 | 1820 | 2760 |
| 2026-04-21 19:15 | 2.80 | 245 | 2830 (2025) | 26 (2006) | 464 | 31 | 78 | 100 | 111 | 221 | 416 | 539 | 1820 | 2760 |
| 2026-04-21 18:15 | 2.80 | 245 | 2830 (2025) | 26 (2006) | 464 | 31 | 78 | 100 | 111 | 221 | 416 | 539 | 1820 | 2760 |
| 2026-04-21 17:15 | 2.78 | 239 | 2830 (2025) | 26 (2006) | 464 | 31 | 78 | 100 | 111 | 221 | 416 | 539 | 1820 | 2760 |
| 2026-04-21 16:15 | 2.83 | 253 | 2830 (2025) | 26 (2006) | 464 | 31 | 78 | 100 | 111 | 221 | 416 | 539 | 1820 | 2760 |
| 2026-04-21 15:15 | 2.83 | 253 | 2830 (2025) | 26 (2006) | 464 | 31 | 78 | 100 | 111 | 221 | 416 | 539 | 1820 | 2760 |
| 2026-04-21 14:15 | 2.83 | 253 | 2830 (2025) | 26 (2006) | 464 | 31 | 78 | 100 | 111 | 221 | 416 | 539 | 1820 | 2760 |
| 2026-04-21 13:15 | 2.85 | 258 | 2830 (2025) | 26 (2006) | 464 | 31 | 78 | 100 | 111 | 221 | 416 | 539 | 1820 | 2760 |
| 2026-04-21 12:15 | 2.87 | 264 | 2830 (2025) | 26 (2006) | 464 | 31 | 78 | 100 | 111 | 221 | 416 | 539 | 1820 | 2760 |
| 2026-04-21 11:15 | 2.84 | 255 | 2830 (2025) | 26 (2006) | 464 | 31 | 78 | 100 | 111 | 221 | 416 | 539 | 1820 | 2760 |
| 2026-04-21 10:15 | 2.89 | 269 | 2830 (2025) | 26 (2006) | 464 | 31 | 78 | 100 | 111 | 221 | 416 | 539 | 1820 | 2760 |
| 2026-04-21 09:15 | 2.89 | 269 | 2830 (2025) | 26 (2006) | 464 | 31 | 78 | 100 | 111 | 221 | 416 | 539 | 1820 | 2760 |
| 2026-04-21 08:15 | 2.89 | 269 | 2830 (2025) | 26 (2006) | 464 | 31 | 78 | 100 | 111 | 221 | 416 | 539 | 1820 | 2760 |
| 2026-04-21 07:15 | 2.90 | 272 | 2830 (2025) | 26 (2006) | 464 | 31 | 78 | 100 | 111 | 221 | 416 | 539 | 1820 | 2760 |
| 2026-04-21 06:15 | 2.91 | 275 | 2830 (2025) | 26 (2006) | 464 | 31 | 78 | 100 | 111 | 221 | 416 | 539 | 1820 | 2760 |
| 2026-04-21 05:15 | 2.92 | 278 | 2830 (2025) | 26 (2006) | 464 | 31 | 78 | 100 | 111 | 221 | 416 | 539 | 1820 | 2760 |
| 2026-04-21 04:15 | 2.93 | 281 | 2830 (2025) | 26 (2006) | 464 | 31 | 78 | 100 | 111 | 221 | 416 | 539 | 1820 | 2760 |
| 2026-04-21 03:15 | 2.94 | 284 | 2830 (2025) | 26 (2006) | 464 | 31 | 78 | 100 | 111 | 221 | 416 | 539 | 1820 | 2760 |
| 2026-04-21 02:15 | 2.95 | 286 | 2830 (2025) | 26 (2006) | 464 | 31 | 78 | 100 | 111 | 221 | 416 | 539 | 1820 | 2760 |
| 2026-04-21 01:15 | 2.96 | 289 | 2830 (2025) | 26 (2006) | 464 | 31 | 78 | 100 | 111 | 221 | 416 | 539 | 1820 | 2760 |
| 2026-04-21 00:15 | 2.97 | 292 | 2830 (2025) | 26 (2006) | 464 | 31 | 78 | 100 | 111 | 221 | 416 | 539 | 1820 | 2760 |
| 2026-04-20 23:15 | 2.98 | 295 | 2830 (2025) | 26 (2006) | 464 | 31 | 78 | 100 | 111 | 221 | 416 | 539 | 1820 | 2760 |
| 2026-04-20 22:15 | 2.99 | 298 | 5840 (2025) | 27 (2006) | 557 | 32 | 81 | 94 | 102 | 222 | 394 | 515 | 972 | 5350 |
| 2026-04-20 21:15 | 3.00 | 302 | 5840 (2025) | 27 (2006) | 557 | 32 | 81 | 94 | 102 | 222 | 394 | 515 | 972 | 5350 |
| 2026-04-20 20:15 | 3.02 | 308 | 5840 (2025) | 27 (2006) | 557 | 32 | 81 | 94 | 102 | 222 | 394 | 515 | 972 | 5350 |
| 2026-04-20 19:15 | 3.03 | 311 | 5840 (2025) | 27 (2006) | 557 | 32 | 81 | 94 | 102 | 222 | 394 | 515 | 972 | 5350 |
| 2026-04-20 18:15 | 3.02 | 308 | 5840 (2025) | 27 (2006) | 557 | 32 | 81 | 94 | 102 | 222 | 394 | 515 | 972 | 5350 |
| 2026-04-20 17:15 | 3.06 | 320 | 5840 (2025) | 27 (2006) | 557 | 32 | 81 | 94 | 102 | 222 | 394 | 515 | 972 | 5350 |
| 2026-04-20 16:15 | 3.07 | 324 | 5840 (2025) | 27 (2006) | 557 | 32 | 81 | 94 | 102 | 222 | 394 | 515 | 972 | 5350 |
| 2026-04-20 15:15 | 3.09 | 330 | 5840 (2025) | 27 (2006) | 557 | 32 | 81 | 94 | 102 | 222 | 394 | 515 | 972 | 5350 |
| 2026-04-20 14:15 | 3.10 | 333 | 5840 (2025) | 27 (2006) | 557 | 32 | 81 | 94 | 102 | 222 | 394 | 515 | 972 | 5350 |
| 2026-04-20 13:15 | 3.11 | 337 | 5840 (2025) | 27 (2006) | 557 | 32 | 81 | 94 | 102 | 222 | 394 | 515 | 972 | 5350 |
| 2026-04-20 12:15 | 3.12 | 340 | 5840 (2025) | 27 (2006) | 557 | 32 | 81 | 94 | 102 | 222 | 394 | 515 | 972 | 5350 |
| 2026-04-20 11:15 | 3.15 | 350 | 5840 (2025) | 27 (2006) | 557 | 32 | 81 | 94 | 102 | 222 | 394 | 515 | 972 | 5350 |
| 2026-04-20 10:15 | 3.15 | 350 | 5840 (2025) | 27 (2006) | 557 | 32 | 81 | 94 | 102 | 222 | 394 | 515 | 972 | 5350 |
| 2026-04-20 09:15 | 3.16 | 354 | 5840 (2025) | 27 (2006) | 557 | 32 | 81 | 94 | 102 | 222 | 394 | 515 | 972 | 5350 |
| 2026-04-20 08:15 | 3.17 | 357 | 5840 (2025) | 27 (2006) | 557 | 32 | 81 | 94 | 102 | 222 | 394 | 515 | 972 | 5350 |
| 2026-04-20 07:15 | 3.18 | 360 | 5840 (2025) | 27 (2006) | 557 | 32 | 81 | 94 | 102 | 222 | 394 | 515 | 972 | 5350 |
| 2026-04-20 06:15 | 3.20 | 367 | 5840 (2025) | 27 (2006) | 557 | 32 | 81 | 94 | 102 | 222 | 394 | 515 | 972 | 5350 |
| 2026-04-20 05:15 | 3.20 | 367 | 5840 (2025) | 27 (2006) | 557 | 32 | 81 | 94 | 102 | 222 | 394 | 515 | 972 | 5350 |
| 2026-04-20 04:15 | 3.22 | 375 | 5840 (2025) | 27 (2006) | 557 | 32 | 81 | 94 | 102 | 222 | 394 | 515 | 972 | 5350 |
| 2026-04-20 03:15 | 3.24 | 382 | 5840 (2025) | 27 (2006) | 557 | 32 | 81 | 94 | 102 | 222 | 394 | 515 | 972 | 5350 |
| 2026-04-20 02:15 | 3.24 | 382 | 5840 (2025) | 27 (2006) | 557 | 32 | 81 | 94 | 102 | 222 | 394 | 515 | 972 | 5350 |
| 2026-04-20 01:15 | 3.27 | 393 | 5840 (2025) | 27 (2006) | 557 | 32 | 81 | 94 | 102 | 222 | 394 | 515 | 972 | 5350 |
| 2026-04-20 00:15 | 3.29 | 400 | 5840 (2025) | 27 (2006) | 557 | 32 | 81 | 94 | 102 | 222 | 394 | 515 | 972 | 5350 |
| 2026-04-19 23:15 | 3.30 | 404 | 5840 (2025) | 27 (2006) | 557 | 32 | 81 | 94 | 102 | 222 | 394 | 515 | 972 | 5350 |
| 2026-04-19 22:15 | 3.32 | 412 | 2660 (2025) | 29 (2006) | 514 | 34 | 86 | 96 | 102 | 233 | 428 | 742 | 2160 | 2630 |
| 2026-04-19 21:15 | 3.34 | 419 | 2660 (2025) | 29 (2006) | 514 | 34 | 86 | 96 | 102 | 233 | 428 | 742 | 2160 | 2630 |
| 2026-04-19 20:15 | 3.36 | 427 | 2660 (2025) | 29 (2006) | 514 | 34 | 86 | 96 | 102 | 233 | 428 | 742 | 2160 | 2630 |
| 2026-04-19 19:15 | 3.38 | 435 | 2660 (2025) | 29 (2006) | 514 | 34 | 86 | 96 | 102 | 233 | 428 | 742 | 2160 | 2630 |
| 2026-04-19 18:15 | 3.41 | 447 | 2660 (2025) | 29 (2006) | 514 | 34 | 86 | 96 | 102 | 233 | 428 | 742 | 2160 | 2630 |
| 2026-04-19 17:15 | 3.44 | 460 | 2660 (2025) | 29 (2006) | 514 | 34 | 86 | 96 | 102 | 233 | 428 | 742 | 2160 | 2630 |
| 2026-04-19 16:15 | 3.46 | 468 | 2660 (2025) | 29 (2006) | 514 | 34 | 86 | 96 | 102 | 233 | 428 | 742 | 2160 | 2630 |
| 2026-04-19 15:15 | 3.47 | 472 | 2660 (2025) | 29 (2006) | 514 | 34 | 86 | 96 | 102 | 233 | 428 | 742 | 2160 | 2630 |
| 2026-04-19 14:15 | 3.50 | 485 | 2660 (2025) | 29 (2006) | 514 | 34 | 86 | 96 | 102 | 233 | 428 | 742 | 2160 | 2630 |
| 2026-04-19 13:15 | 3.53 | 498 | 2660 (2025) | 29 (2006) | 514 | 34 | 86 | 96 | 102 | 233 | 428 | 742 | 2160 | 2630 |
| 2026-04-19 12:15 | 3.54 | 502 | 2660 (2025) | 29 (2006) | 514 | 34 | 86 | 96 | 102 | 233 | 428 | 742 | 2160 | 2630 |
| 2026-04-19 11:15 | 3.55 | 507 | 2660 (2025) | 29 (2006) | 514 | 34 | 86 | 96 | 102 | 233 | 428 | 742 | 2160 | 2630 |
| 2026-04-19 10:15 | 3.56 | 511 | 2660 (2025) | 29 (2006) | 514 | 34 | 86 | 96 | 102 | 233 | 428 | 742 | 2160 | 2630 |
| 2026-04-19 09:15 | 3.58 | 520 | 2660 (2025) | 29 (2006) | 514 | 34 | 86 | 96 | 102 | 233 | 428 | 742 | 2160 | 2630 |
| 2026-04-19 08:15 | 3.61 | 534 | 2660 (2025) | 29 (2006) | 514 | 34 | 86 | 96 | 102 | 233 | 428 | 742 | 2160 | 2630 |
| 2026-04-19 07:15 | 3.63 | 543 | 2660 (2025) | 29 (2006) | 514 | 34 | 86 | 96 | 102 | 233 | 428 | 742 | 2160 | 2630 |
| 2026-04-19 06:15 | 3.64 | 548 | 2660 (2025) | 29 (2006) | 514 | 34 | 86 | 96 | 102 | 233 | 428 | 742 | 2160 | 2630 |
| 2026-04-19 05:15 | 3.65 | 553 | 2660 (2025) | 29 (2006) | 514 | 34 | 86 | 96 | 102 | 233 | 428 | 742 | 2160 | 2630 |
| 2026-04-19 04:15 | 3.68 | 567 | 2660 (2025) | 29 (2006) | 514 | 34 | 86 | 96 | 102 | 233 | 428 | 742 | 2160 | 2630 |
| 2026-04-19 03:15 | 3.70 | 577 | 2660 (2025) | 29 (2006) | 514 | 34 | 86 | 96 | 102 | 233 | 428 | 742 | 2160 | 2630 |
| 2026-04-19 02:15 | 3.73 | 592 | 2660 (2025) | 29 (2006) | 514 | 34 | 86 | 96 | 102 | 233 | 428 | 742 | 2160 | 2630 |
| 2026-04-19 01:15 | 3.74 | 597 | 2660 (2025) | 29 (2006) | 514 | 34 | 86 | 96 | 102 | 233 | 428 | 742 | 2160 | 2630 |
| 2026-04-19 00:15 | 3.76 | 606 | 2660 (2025) | 29 (2006) | 514 | 34 | 86 | 96 | 102 | 233 | 428 | 742 | 2160 | 2630 |
| 2026-04-18 23:15 | 3.79 | 618 | 2660 (2025) | 29 (2006) | 514 | 34 | 86 | 96 | 102 | 233 | 428 | 742 | 2160 | 2630 |
| 2026-04-18 22:15 | 3.81 | 626 | 4930 (2013) | 30 (2006) | 514 | 36 | 90 | 100 | 102 | 240 | 389 | 428 | 1340 | 4590 |
| 2026-04-18 21:15 | 3.83 | 634 | 4930 (2013) | 30 (2006) | 514 | 36 | 90 | 100 | 102 | 240 | 389 | 428 | 1340 | 4590 |
| 2026-04-18 20:15 | 3.85 | 642 | 4930 (2013) | 30 (2006) | 514 | 36 | 90 | 100 | 102 | 240 | 389 | 428 | 1340 | 4590 |
| 2026-04-18 19:15 | 3.87 | 650 | 4930 (2013) | 30 (2006) | 514 | 36 | 90 | 100 | 102 | 240 | 389 | 428 | 1340 | 4590 |
| 2026-04-18 18:15 | 3.90 | 663 | 4930 (2013) | 30 (2006) | 514 | 36 | 90 | 100 | 102 | 240 | 389 | 428 | 1340 | 4590 |
| 2026-04-18 17:15 | 3.92 | 671 | 4930 (2013) | 30 (2006) | 514 | 36 | 90 | 100 | 102 | 240 | 389 | 428 | 1340 | 4590 |
| 2026-04-18 16:15 | 3.93 | 676 | 4930 (2013) | 30 (2006) | 514 | 36 | 90 | 100 | 102 | 240 | 389 | 428 | 1340 | 4590 |
| 2026-04-18 15:15 | 3.92 | 671 | 4930 (2013) | 30 (2006) | 514 | 36 | 90 | 100 | 102 | 240 | 389 | 428 | 1340 | 4590 |
| 2026-04-18 14:15 | 3.89 | 659 | 4930 (2013) | 30 (2006) | 514 | 36 | 90 | 100 | 102 | 240 | 389 | 428 | 1340 | 4590 |
| 2026-04-18 13:15 | 3.84 | 638 | 4930 (2013) | 30 (2006) | 514 | 36 | 90 | 100 | 102 | 240 | 389 | 428 | 1340 | 4590 |
| 2026-04-18 12:15 | 3.77 | 610 | 4930 (2013) | 30 (2006) | 514 | 36 | 90 | 100 | 102 | 240 | 389 | 428 | 1340 | 4590 |
| 2026-04-18 11:15 | 3.67 | 562 | 4930 (2013) | 30 (2006) | 514 | 36 | 90 | 100 | 102 | 240 | 389 | 428 | 1340 | 4590 |
| 2026-04-18 10:15 | 3.59 | 525 | 4930 (2013) | 30 (2006) | 514 | 36 | 90 | 100 | 102 | 240 | 389 | 428 | 1340 | 4590 |
| 2026-04-18 09:15 | 3.51 | 489 | 4930 (2013) | 30 (2006) | 514 | 36 | 90 | 100 | 102 | 240 | 389 | 428 | 1340 | 4590 |
| 2026-04-18 08:15 | 3.37 | 431 | 4930 (2013) | 30 (2006) | 514 | 36 | 90 | 100 | 102 | 240 | 389 | 428 | 1340 | 4590 |
| 2026-04-18 07:15 | 3.24 | 382 | 4930 (2013) | 30 (2006) | 514 | 36 | 90 | 100 | 102 | 240 | 389 | 428 | 1340 | 4590 |
| 2026-04-18 06:15 | 3.11 | 337 | 4930 (2013) | 30 (2006) | 514 | 36 | 90 | 100 | 102 | 240 | 389 | 428 | 1340 | 4590 |
| 2026-04-18 05:15 | 2.99 | 298 | 4930 (2013) | 30 (2006) | 514 | 36 | 90 | 100 | 102 | 240 | 389 | 428 | 1340 | 4590 |
| 2026-04-18 04:15 | 2.88 | 266 | 4930 (2013) | 30 (2006) | 514 | 36 | 90 | 100 | 102 | 240 | 389 | 428 | 1340 | 4590 |
| 2026-04-18 03:15 | 2.76 | 234 | 4930 (2013) | 30 (2006) | 514 | 36 | 90 | 100 | 102 | 240 | 389 | 428 | 1340 | 4590 |
| 2026-04-18 02:15 | 2.74 | 229 | 4930 (2013) | 30 (2006) | 514 | 36 | 90 | 100 | 102 | 240 | 389 | 428 | 1340 | 4590 |
| 2026-04-18 01:15 | 2.73 | 227 | 4930 (2013) | 30 (2006) | 514 | 36 | 90 | 100 | 102 | 240 | 389 | 428 | 1340 | 4590 |
| 2026-04-18 00:15 | 2.72 | 224 | 4930 (2013) | 30 (2006) | 514 | 36 | 90 | 100 | 102 | 240 | 389 | 428 | 1340 | 4590 |
| 2026-04-17 23:15 | 2.71 | 222 | 4930 (2013) | 30 (2006) | 514 | 36 | 90 | 100 | 102 | 240 | 389 | 428 | 1340 | 4590 |
| 2026-04-17 22:15 | 2.72 | 224 | 571 (2022) | 32 (2006) | 234 | 38 | 94 | 103 | 107 | 211 | 319 | 380 | 431 | 558 |
| 2026-04-17 21:15 | 2.72 | 224 | 571 (2022) | 32 (2006) | 234 | 38 | 94 | 103 | 107 | 211 | 319 | 380 | 431 | 558 |
| 2026-04-17 20:15 | 2.68 | 214 | 571 (2022) | 32 (2006) | 234 | 38 | 94 | 103 | 107 | 211 | 319 | 380 | 431 | 558 |
| 2026-04-17 19:15 | 2.74 | 229 | 571 (2022) | 32 (2006) | 234 | 38 | 94 | 103 | 107 | 211 | 319 | 380 | 431 | 558 |
| 2026-04-17 18:15 | 2.74 | 229 | 571 (2022) | 32 (2006) | 234 | 38 | 94 | 103 | 107 | 211 | 319 | 380 | 431 | 558 |
| 2026-04-17 17:15 | 2.75 | 232 | 571 (2022) | 32 (2006) | 234 | 38 | 94 | 103 | 107 | 211 | 319 | 380 | 431 | 558 |
| 2026-04-17 16:15 | 2.75 | 232 | 571 (2022) | 32 (2006) | 234 | 38 | 94 | 103 | 107 | 211 | 319 | 380 | 431 | 558 |
| 2026-04-17 15:15 | 2.76 | 234 | 571 (2022) | 32 (2006) | 234 | 38 | 94 | 103 | 107 | 211 | 319 | 380 | 431 | 558 |
| 2026-04-17 14:15 | 2.77 | 237 | 571 (2022) | 32 (2006) | 234 | 38 | 94 | 103 | 107 | 211 | 319 | 380 | 431 | 558 |
| 2026-04-17 13:15 | 2.78 | 239 | 571 (2022) | 32 (2006) | 234 | 38 | 94 | 103 | 107 | 211 | 319 | 380 | 431 | 558 |
| 2026-04-17 12:15 | 2.78 | 239 | 571 (2022) | 32 (2006) | 234 | 38 | 94 | 103 | 107 | 211 | 319 | 380 | 431 | 558 |
| 2026-04-17 11:15 | 2.76 | 234 | 571 (2022) | 32 (2006) | 234 | 38 | 94 | 103 | 107 | 211 | 319 | 380 | 431 | 558 |
| 2026-04-17 10:15 | 2.78 | 239 | 571 (2022) | 32 (2006) | 234 | 38 | 94 | 103 | 107 | 211 | 319 | 380 | 431 | 558 |
| 2026-04-17 09:15 | 2.80 | 245 | 571 (2022) | 32 (2006) | 234 | 38 | 94 | 103 | 107 | 211 | 319 | 380 | 431 | 558 |
| 2026-04-17 08:15 | 2.81 | 247 | 571 (2022) | 32 (2006) | 234 | 38 | 94 | 103 | 107 | 211 | 319 | 380 | 431 | 558 |
| 2026-04-17 07:15 | 2.81 | 247 | 571 (2022) | 32 (2006) | 234 | 38 | 94 | 103 | 107 | 211 | 319 | 380 | 431 | 558 |
| 2026-04-17 06:15 | 2.83 | 253 | 571 (2022) | 32 (2006) | 234 | 38 | 94 | 103 | 107 | 211 | 319 | 380 | 431 | 558 |
| 2026-04-17 05:15 | 2.84 | 255 | 571 (2022) | 32 (2006) | 234 | 38 | 94 | 103 | 107 | 211 | 319 | 380 | 431 | 558 |
| 2026-04-17 04:15 | 2.85 | 258 | 571 (2022) | 32 (2006) | 234 | 38 | 94 | 103 | 107 | 211 | 319 | 380 | 431 | 558 |
| 2026-04-17 03:15 | 2.86 | 261 | 571 (2022) | 32 (2006) | 234 | 38 | 94 | 103 | 107 | 211 | 319 | 380 | 431 | 558 |
| 2026-04-17 02:15 | 2.87 | 264 | 571 (2022) | 32 (2006) | 234 | 38 | 94 | 103 | 107 | 211 | 319 | 380 | 431 | 558 |
| 2026-04-17 01:15 | 2.88 | 266 | 571 (2022) | 32 (2006) | 234 | 38 | 94 | 103 | 107 | 211 | 319 | 380 | 431 | 558 |
| 2026-04-17 00:15 | 2.89 | 269 | 571 (2022) | 32 (2006) | 234 | 38 | 94 | 103 | 107 | 211 | 319 | 380 | 431 | 558 |
| 2026-04-16 23:15 | 2.90 | 272 | 571 (2022) | 32 (2006) | 234 | 38 | 94 | 103 | 107 | 211 | 319 | 380 | 431 | 558 |
| 2026-04-16 22:15 | 2.91 | 275 | 668 (2022) | 34 (2006) | 251 | 40 | 97 | 108 | 113 | 212 | 355 | 427 | 490 | 650 |
| 2026-04-16 21:15 | 2.93 | 281 | 668 (2022) | 34 (2006) | 251 | 40 | 97 | 108 | 113 | 212 | 355 | 427 | 490 | 650 |
| 2026-04-16 20:15 | 2.94 | 284 | 668 (2022) | 34 (2006) | 251 | 40 | 97 | 108 | 113 | 212 | 355 | 427 | 490 | 650 |
| 2026-04-16 19:15 | 2.95 | 286 | 668 (2022) | 34 (2006) | 251 | 40 | 97 | 108 | 113 | 212 | 355 | 427 | 490 | 650 |
| 2026-04-16 18:15 | 2.98 | 295 | 668 (2022) | 34 (2006) | 251 | 40 | 97 | 108 | 113 | 212 | 355 | 427 | 490 | 650 |
| 2026-04-16 17:15 | 2.99 | 298 | 668 (2022) | 34 (2006) | 251 | 40 | 97 | 108 | 113 | 212 | 355 | 427 | 490 | 650 |
| 2026-04-16 16:15 | 2.95 | 286 | 668 (2022) | 34 (2006) | 251 | 40 | 97 | 108 | 113 | 212 | 355 | 427 | 490 | 650 |
| 2026-04-16 15:15 | 3.01 | 305 | 668 (2022) | 34 (2006) | 251 | 40 | 97 | 108 | 113 | 212 | 355 | 427 | 490 | 650 |
| 2026-04-16 14:15 | 3.03 | 311 | 668 (2022) | 34 (2006) | 251 | 40 | 97 | 108 | 113 | 212 | 355 | 427 | 490 | 650 |
| 2026-04-16 13:15 | 3.02 | 308 | 668 (2022) | 34 (2006) | 251 | 40 | 97 | 108 | 113 | 212 | 355 | 427 | 490 | 650 |
| 2026-04-16 12:15 | 3.05 | 317 | 668 (2022) | 34 (2006) | 251 | 40 | 97 | 108 | 113 | 212 | 355 | 427 | 490 | 650 |
| 2026-04-16 11:15 | 3.10 | 333 | 668 (2022) | 34 (2006) | 251 | 40 | 97 | 108 | 113 | 212 | 355 | 427 | 490 | 650 |
| 2026-04-16 10:15 | 3.12 | 340 | 668 (2022) | 34 (2006) | 251 | 40 | 97 | 108 | 113 | 212 | 355 | 427 | 490 | 650 |
| 2026-04-16 09:15 | 3.13 | 343 | 668 (2022) | 34 (2006) | 251 | 40 | 97 | 108 | 113 | 212 | 355 | 427 | 490 | 650 |
| 2026-04-16 08:15 | 3.17 | 357 | 668 (2022) | 34 (2006) | 251 | 40 | 97 | 108 | 113 | 212 | 355 | 427 | 490 | 650 |
| 2026-04-16 07:15 | 3.19 | 364 | 668 (2022) | 34 (2006) | 251 | 40 | 97 | 108 | 113 | 212 | 355 | 427 | 490 | 650 |
| 2026-04-16 06:15 | 3.18 | 360 | 668 (2022) | 34 (2006) | 251 | 40 | 97 | 108 | 113 | 212 | 355 | 427 | 490 | 650 |
| 2026-04-16 05:15 | 3.12 | 340 | 668 (2022) | 34 (2006) | 251 | 40 | 97 | 108 | 113 | 212 | 355 | 427 | 490 | 650 |
| 2026-04-16 04:15 | 3.07 | 324 | 668 (2022) | 34 (2006) | 251 | 40 | 97 | 108 | 113 | 212 | 355 | 427 | 490 | 650 |
| 2026-04-16 03:15 | 3.04 | 314 | 668 (2022) | 34 (2006) | 251 | 40 | 97 | 108 | 113 | 212 | 355 | 427 | 490 | 650 |
| 2026-04-16 02:15 | 3.06 | 320 | 668 (2022) | 34 (2006) | 251 | 40 | 97 | 108 | 113 | 212 | 355 | 427 | 490 | 650 |
| 2026-04-16 01:15 | 3.08 | 327 | 668 (2022) | 34 (2006) | 251 | 40 | 97 | 108 | 113 | 212 | 355 | 427 | 490 | 650 |
| 2026-04-16 00:15 | 3.10 | 333 | 668 (2022) | 34 (2006) | 251 | 40 | 97 | 108 | 113 | 212 | 355 | 427 | 490 | 650 |
| 2026-04-15 23:15 | 3.12 | 340 | 668 (2022) | 34 (2006) | 251 | 40 | 97 | 108 | 113 | 212 | 355 | 427 | 490 | 650 |
| 2026-04-15 22:15 | 3.18 | 360 | 877 (2022) | 36 (2006) | 285 | 42 | 101 | 105 | 113 | 233 | 401 | 493 | 608 | 851 |
| 2026-04-15 21:15 | 3.25 | 385 | 877 (2022) | 36 (2006) | 285 | 42 | 101 | 105 | 113 | 233 | 401 | 493 | 608 | 851 |
| 2026-04-15 20:15 | 3.27 | 393 | 877 (2022) | 36 (2006) | 285 | 42 | 101 | 105 | 113 | 233 | 401 | 493 | 608 | 851 |
| 2026-04-15 19:15 | 3.30 | 404 | 877 (2022) | 36 (2006) | 285 | 42 | 101 | 105 | 113 | 233 | 401 | 493 | 608 | 851 |
| 2026-04-15 18:15 | 3.29 | 400 | 877 (2022) | 36 (2006) | 285 | 42 | 101 | 105 | 113 | 233 | 401 | 493 | 608 | 851 |
| 2026-04-15 17:15 | 3.19 | 364 | 877 (2022) | 36 (2006) | 285 | 42 | 101 | 105 | 113 | 233 | 401 | 493 | 608 | 851 |
| 2026-04-15 16:15 | 2.94 | 284 | 877 (2022) | 36 (2006) | 285 | 42 | 101 | 105 | 113 | 233 | 401 | 493 | 608 | 851 |
| 2026-04-15 15:15 | 2.66 | 210 | 877 (2022) | 36 (2006) | 285 | 42 | 101 | 105 | 113 | 233 | 401 | 493 | 608 | 851 |
| 2026-04-15 14:15 | 2.51 | 176 | 877 (2022) | 36 (2006) | 285 | 42 | 101 | 105 | 113 | 233 | 401 | 493 | 608 | 851 |
| 2026-04-15 13:15 | 2.39 | 153 | 877 (2022) | 36 (2006) | 285 | 42 | 101 | 105 | 113 | 233 | 401 | 493 | 608 | 851 |
| 2026-04-15 12:15 | 2.31 | 138 | 877 (2022) | 36 (2006) | 285 | 42 | 101 | 105 | 113 | 233 | 401 | 493 | 608 | 851 |
| 2026-04-15 11:15 | 2.28 | 133 | 877 (2022) | 36 (2006) | 285 | 42 | 101 | 105 | 113 | 233 | 401 | 493 | 608 | 851 |
| 2026-04-15 10:15 | 2.25 | 128 | 877 (2022) | 36 (2006) | 285 | 42 | 101 | 105 | 113 | 233 | 401 | 493 | 608 | 851 |
| 2026-04-15 09:15 | 2.24 | 126 | 877 (2022) | 36 (2006) | 285 | 42 | 101 | 105 | 113 | 233 | 401 | 493 | 608 | 851 |
| 2026-04-15 08:15 | 2.22 | 123 | 877 (2022) | 36 (2006) | 285 | 42 | 101 | 105 | 113 | 233 | 401 | 493 | 608 | 851 |
| 2026-04-15 07:15 | 2.21 | 121 | 877 (2022) | 36 (2006) | 285 | 42 | 101 | 105 | 113 | 233 | 401 | 493 | 608 | 851 |
| 2026-04-15 06:15 | 2.20 | 120 | 877 (2022) | 36 (2006) | 285 | 42 | 101 | 105 | 113 | 233 | 401 | 493 | 608 | 851 |
| 2026-04-15 05:15 | 2.18 | 117 | 877 (2022) | 36 (2006) | 285 | 42 | 101 | 105 | 113 | 233 | 401 | 493 | 608 | 851 |
| 2026-04-15 04:15 | 2.18 | 117 | 877 (2022) | 36 (2006) | 285 | 42 | 101 | 105 | 113 | 233 | 401 | 493 | 608 | 851 |
| 2026-04-15 03:15 | 2.19 | 118 | 877 (2022) | 36 (2006) | 285 | 42 | 101 | 105 | 113 | 233 | 401 | 493 | 608 | 851 |
| 2026-04-15 02:15 | 2.19 | 118 | 877 (2022) | 36 (2006) | 285 | 42 | 101 | 105 | 113 | 233 | 401 | 493 | 608 | 851 |
| 2026-04-15 01:15 | 2.17 | 115 | 877 (2022) | 36 (2006) | 285 | 42 | 101 | 105 | 113 | 233 | 401 | 493 | 608 | 851 |
| 2026-04-15 00:15 | 2.12 | 108 | 877 (2022) | 36 (2006) | 285 | 42 | 101 | 105 | 113 | 233 | 401 | 493 | 608 | 851 |
| 2026-04-14 23:15 | 2.13 | 109 | 877 (2022) | 36 (2006) | 285 | 42 | 101 | 105 | 113 | 233 | 401 | 493 | 608 | 851 |
| 2026-04-14 22:15 | 2.13 | 109 | 1700 (2022) | 37 (2006) | 350 | 44 | 104 | 106 | 113 | 208 | 404 | 537 | 848 | 1620 |
| 2026-04-14 21:15 | 2.13 | 109 | 1700 (2022) | 37 (2006) | 350 | 44 | 104 | 106 | 113 | 208 | 404 | 537 | 848 | 1620 |
| 2026-04-14 20:15 | 2.13 | 109 | 1700 (2022) | 37 (2006) | 350 | 44 | 104 | 106 | 113 | 208 | 404 | 537 | 848 | 1620 |
| 2026-04-14 19:15 | 2.13 | 109 | 1700 (2022) | 37 (2006) | 350 | 44 | 104 | 106 | 113 | 208 | 404 | 537 | 848 | 1620 |
| 2026-04-14 18:15 | 2.13 | 109 | 1700 (2022) | 37 (2006) | 350 | 44 | 104 | 106 | 113 | 208 | 404 | 537 | 848 | 1620 |
| 2026-04-14 17:15 | 2.14 | 111 | 1700 (2022) | 37 (2006) | 350 | 44 | 104 | 106 | 113 | 208 | 404 | 537 | 848 | 1620 |
| 2026-04-14 16:15 | 2.13 | 109 | 1700 (2022) | 37 (2006) | 350 | 44 | 104 | 106 | 113 | 208 | 404 | 537 | 848 | 1620 |
| 2026-04-14 15:15 | 2.13 | 109 | 1700 (2022) | 37 (2006) | 350 | 44 | 104 | 106 | 113 | 208 | 404 | 537 | 848 | 1620 |
| 2026-04-14 14:15 | 2.14 | 111 | 1700 (2022) | 37 (2006) | 350 | 44 | 104 | 106 | 113 | 208 | 404 | 537 | 848 | 1620 |
| 2026-04-14 13:15 | 2.14 | 111 | 1700 (2022) | 37 (2006) | 350 | 44 | 104 | 106 | 113 | 208 | 404 | 537 | 848 | 1620 |
| 2026-04-14 12:15 | 2.15 | 112 | 1700 (2022) | 37 (2006) | 350 | 44 | 104 | 106 | 113 | 208 | 404 | 537 | 848 | 1620 |
| 2026-04-14 11:15 | 2.15 | 112 | 1700 (2022) | 37 (2006) | 350 | 44 | 104 | 106 | 113 | 208 | 404 | 537 | 848 | 1620 |
| 2026-04-14 10:15 | 2.14 | 111 | 1700 (2022) | 37 (2006) | 350 | 44 | 104 | 106 | 113 | 208 | 404 | 537 | 848 | 1620 |
| 2026-04-14 09:15 | 2.15 | 112 | 1700 (2022) | 37 (2006) | 350 | 44 | 104 | 106 | 113 | 208 | 404 | 537 | 848 | 1620 |
| 2026-04-14 08:15 | 2.15 | 112 | 1700 (2022) | 37 (2006) | 350 | 44 | 104 | 106 | 113 | 208 | 404 | 537 | 848 | 1620 |
| 2026-04-14 07:15 | 2.14 | 111 | 1700 (2022) | 37 (2006) | 350 | 44 | 104 | 106 | 113 | 208 | 404 | 537 | 848 | 1620 |
| 2026-04-14 06:15 | 2.16 | 114 | 1700 (2022) | 37 (2006) | 350 | 44 | 104 | 106 | 113 | 208 | 404 | 537 | 848 | 1620 |
| 2026-04-14 05:15 | 2.15 | 112 | 1700 (2022) | 37 (2006) | 350 | 44 | 104 | 106 | 113 | 208 | 404 | 537 | 848 | 1620 |
| 2026-04-14 04:15 | 2.15 | 112 | 1700 (2022) | 37 (2006) | 350 | 44 | 104 | 106 | 113 | 208 | 404 | 537 | 848 | 1620 |
| 2026-04-14 03:15 | 2.15 | 112 | 1700 (2022) | 37 (2006) | 350 | 44 | 104 | 106 | 113 | 208 | 404 | 537 | 848 | 1620 |
| 2026-04-14 02:15 | 2.15 | 112 | 1700 (2022) | 37 (2006) | 350 | 44 | 104 | 106 | 113 | 208 | 404 | 537 | 848 | 1620 |
| 2026-04-14 01:15 | 2.15 | 112 | 1700 (2022) | 37 (2006) | 350 | 44 | 104 | 106 | 113 | 208 | 404 | 537 | 848 | 1620 |
| 2026-04-14 00:15 | 2.15 | 112 | 1700 (2022) | 37 (2006) | 350 | 44 | 104 | 106 | 113 | 208 | 404 | 537 | 848 | 1620 |
| 2026-04-13 23:15 | 2.16 | 114 | 1700 (2022) | 37 (2006) | 350 | 44 | 104 | 106 | 113 | 208 | 404 | 537 | 848 | 1620 |
| 2026-04-13 22:15 | 2.16 | 114 | 2430 (2022) | 40 (2006) | 415 | 43 | 77 | 110 | 113 | 216 | 405 | 660 | 1250 | 2320 |
| 2026-04-13 21:15 | 2.16 | 114 | 2430 (2022) | 40 (2006) | 415 | 43 | 77 | 110 | 113 | 216 | 405 | 660 | 1250 | 2320 |
| 2026-04-13 20:15 | 2.16 | 114 | 2430 (2022) | 40 (2006) | 415 | 43 | 77 | 110 | 113 | 216 | 405 | 660 | 1250 | 2320 |
| 2026-04-13 19:15 | 2.16 | 114 | 2430 (2022) | 40 (2006) | 415 | 43 | 77 | 110 | 113 | 216 | 405 | 660 | 1250 | 2320 |
| 2026-04-13 18:15 | 2.16 | 114 | 2430 (2022) | 40 (2006) | 415 | 43 | 77 | 110 | 113 | 216 | 405 | 660 | 1250 | 2320 |
| 2026-04-13 17:15 | 2.16 | 114 | 2430 (2022) | 40 (2006) | 415 | 43 | 77 | 110 | 113 | 216 | 405 | 660 | 1250 | 2320 |
| 2026-04-13 16:15 | 2.17 | 115 | 2430 (2022) | 40 (2006) | 415 | 43 | 77 | 110 | 113 | 216 | 405 | 660 | 1250 | 2320 |
| 2026-04-13 15:15 | 2.16 | 114 | 2430 (2022) | 40 (2006) | 415 | 43 | 77 | 110 | 113 | 216 | 405 | 660 | 1250 | 2320 |
| 2026-04-13 14:15 | 2.16 | 114 | 2430 (2022) | 40 (2006) | 415 | 43 | 77 | 110 | 113 | 216 | 405 | 660 | 1250 | 2320 |
| 2026-04-13 13:15 | 2.16 | 114 | 2430 (2022) | 40 (2006) | 415 | 43 | 77 | 110 | 113 | 216 | 405 | 660 | 1250 | 2320 |
| 2026-04-13 12:15 | 2.16 | 114 | 2430 (2022) | 40 (2006) | 415 | 43 | 77 | 110 | 113 | 216 | 405 | 660 | 1250 | 2320 |
| 2026-04-13 11:15 | 2.17 | 115 | 2430 (2022) | 40 (2006) | 415 | 43 | 77 | 110 | 113 | 216 | 405 | 660 | 1250 | 2320 |
| 2026-04-13 10:15 | 2.17 | 115 | 2430 (2022) | 40 (2006) | 415 | 43 | 77 | 110 | 113 | 216 | 405 | 660 | 1250 | 2320 |
| 2026-04-13 09:15 | 2.17 | 68 | 2430 (2022) | 40 (2006) | 415 | 43 | 77 | 110 | 113 | 216 | 405 | 660 | 1250 | 2320 |
| 2026-04-13 08:15 | 2.17 | 68 | 2430 (2022) | 40 (2006) | 415 | 43 | 77 | 110 | 113 | 216 | 405 | 660 | 1250 | 2320 |
| 2026-04-13 07:15 | 2.17 | 68 | 2430 (2022) | 40 (2006) | 415 | 43 | 77 | 110 | 113 | 216 | 405 | 660 | 1250 | 2320 |
| 2026-04-13 06:15 | 2.17 | 68 | 2430 (2022) | 40 (2006) | 415 | 43 | 77 | 110 | 113 | 216 | 405 | 660 | 1250 | 2320 |
| 2026-04-13 05:15 | 2.18 | 69 | 2430 (2022) | 40 (2006) | 415 | 43 | 77 | 110 | 113 | 216 | 405 | 660 | 1250 | 2320 |
| 2026-04-13 04:15 | 2.18 | 69 | 2430 (2022) | 40 (2006) | 415 | 43 | 77 | 110 | 113 | 216 | 405 | 660 | 1250 | 2320 |
| 2026-04-13 03:15 | 2.18 | 69 | 2430 (2022) | 40 (2006) | 415 | 43 | 77 | 110 | 113 | 216 | 405 | 660 | 1250 | 2320 |
| 2026-04-13 02:15 | 2.18 | 69 | 2430 (2022) | 40 (2006) | 415 | 43 | 77 | 110 | 113 | 216 | 405 | 660 | 1250 | 2320 |
| 2026-04-13 01:15 | 2.19 | 70 | 2430 (2022) | 40 (2006) | 415 | 43 | 77 | 110 | 113 | 216 | 405 | 660 | 1250 | 2320 |
| 2026-04-13 00:15 | 2.19 | 70 | 2430 (2022) | 40 (2006) | 415 | 43 | 77 | 110 | 113 | 216 | 405 | 660 | 1250 | 2320 |
| 2026-04-12 23:15 | 2.20 | 71 | 2430 (2022) | 40 (2006) | 415 | 43 | 77 | 110 | 113 | 216 | 405 | 660 | 1250 | 2320 |
| 2026-04-12 22:15 | 2.20 | 71 | 1320 (2008) | 45 (2006) | 305 | 47 | 72 | 115 | 117 | 227 | 440 | 468 | 645 | 1260 |
| 2026-04-12 21:15 | 2.20 | 71 | 1320 (2008) | 45 (2006) | 305 | 47 | 72 | 115 | 117 | 227 | 440 | 468 | 645 | 1260 |
| 2026-04-12 20:15 | 2.19 | 70 | 1320 (2008) | 45 (2006) | 305 | 47 | 72 | 115 | 117 | 227 | 440 | 468 | 645 | 1260 |
| 2026-04-12 19:15 | 2.19 | 70 | 1320 (2008) | 45 (2006) | 305 | 47 | 72 | 115 | 117 | 227 | 440 | 468 | 645 | 1260 |
| 2026-04-12 18:15 | 2.19 | 70 | 1320 (2008) | 45 (2006) | 305 | 47 | 72 | 115 | 117 | 227 | 440 | 468 | 645 | 1260 |
| 2026-04-12 17:15 | 2.20 | 71 | 1320 (2008) | 45 (2006) | 305 | 47 | 72 | 115 | 117 | 227 | 440 | 468 | 645 | 1260 |
| 2026-04-12 16:15 | 2.19 | 70 | 1320 (2008) | 45 (2006) | 305 | 47 | 72 | 115 | 117 | 227 | 440 | 468 | 645 | 1260 |
| 2026-04-12 15:15 | 2.20 | 71 | 1320 (2008) | 45 (2006) | 305 | 47 | 72 | 115 | 117 | 227 | 440 | 468 | 645 | 1260 |
| 2026-04-12 14:15 | 2.20 | 71 | 1320 (2008) | 45 (2006) | 305 | 47 | 72 | 115 | 117 | 227 | 440 | 468 | 645 | 1260 |
| 2026-04-12 13:15 | 2.20 | 71 | 1320 (2008) | 45 (2006) | 305 | 47 | 72 | 115 | 117 | 227 | 440 | 468 | 645 | 1260 |
| 2026-04-12 12:15 | 2.19 | 70 | 1320 (2008) | 45 (2006) | 305 | 47 | 72 | 115 | 117 | 227 | 440 | 468 | 645 | 1260 |
| 2026-04-12 11:15 | 2.21 | 72 | 1320 (2008) | 45 (2006) | 305 | 47 | 72 | 115 | 117 | 227 | 440 | 468 | 645 | 1260 |
| 2026-04-12 10:15 | 2.22 | 73 | 1320 (2008) | 45 (2006) | 305 | 47 | 72 | 115 | 117 | 227 | 440 | 468 | 645 | 1260 |
| 2026-04-12 09:15 | 2.21 | 72 | 1320 (2008) | 45 (2006) | 305 | 47 | 72 | 115 | 117 | 227 | 440 | 468 | 645 | 1260 |
| 2026-04-12 08:15 | 2.20 | 71 | 1320 (2008) | 45 (2006) | 305 | 47 | 72 | 115 | 117 | 227 | 440 | 468 | 645 | 1260 |
| 2026-04-12 07:15 | 2.20 | 71 | 1320 (2008) | 45 (2006) | 305 | 47 | 72 | 115 | 117 | 227 | 440 | 468 | 645 | 1260 |
| 2026-04-12 06:15 | 2.20 | 71 | 1320 (2008) | 45 (2006) | 305 | 47 | 72 | 115 | 117 | 227 | 440 | 468 | 645 | 1260 |
| 2026-04-12 05:15 | 2.20 | 71 | 1320 (2008) | 45 (2006) | 305 | 47 | 72 | 115 | 117 | 227 | 440 | 468 | 645 | 1260 |
| 2026-04-12 04:15 | 2.20 | 71 | 1320 (2008) | 45 (2006) | 305 | 47 | 72 | 115 | 117 | 227 | 440 | 468 | 645 | 1260 |
| 2026-04-12 03:15 | 2.20 | 71 | 1320 (2008) | 45 (2006) | 305 | 47 | 72 | 115 | 117 | 227 | 440 | 468 | 645 | 1260 |
| 2026-04-12 02:15 | 2.20 | 71 | 1320 (2008) | 45 (2006) | 305 | 47 | 72 | 115 | 117 | 227 | 440 | 468 | 645 | 1260 |
| 2026-04-12 01:15 | 2.21 | 72 | 1320 (2008) | 45 (2006) | 305 | 47 | 72 | 115 | 117 | 227 | 440 | 468 | 645 | 1260 |
| 2026-04-12 00:15 | 2.22 | 73 | 1320 (2008) | 45 (2006) | 305 | 47 | 72 | 115 | 117 | 227 | 440 | 468 | 645 | 1260 |
| 2026-04-11 23:15 | 2.20 | 71 | 1320 (2008) | 45 (2006) | 305 | 47 | 72 | 115 | 117 | 227 | 440 | 468 | 645 | 1260 |
| 2026-04-11 22:15 | 2.21 | 72 | 3190 (2008) | 50 (2006) | 388 | 51 | 74 | 121 | 127 | 222 | 344 | 366 | 688 | 2940 |
| 2026-04-11 21:15 | 2.21 | 72 | 3190 (2008) | 50 (2006) | 388 | 51 | 74 | 121 | 127 | 222 | 344 | 366 | 688 | 2940 |
| 2026-04-11 20:15 | 2.21 | 72 | 3190 (2008) | 50 (2006) | 388 | 51 | 74 | 121 | 127 | 222 | 344 | 366 | 688 | 2940 |
| 2026-04-11 19:15 | 2.21 | 72 | 3190 (2008) | 50 (2006) | 388 | 51 | 74 | 121 | 127 | 222 | 344 | 366 | 688 | 2940 |
| 2026-04-11 18:15 | 2.22 | 73 | 3190 (2008) | 50 (2006) | 388 | 51 | 74 | 121 | 127 | 222 | 344 | 366 | 688 | 2940 |
| 2026-04-11 17:15 | 2.22 | 73 | 3190 (2008) | 50 (2006) | 388 | 51 | 74 | 121 | 127 | 222 | 344 | 366 | 688 | 2940 |
| 2026-04-11 16:15 | 2.21 | 72 | 3190 (2008) | 50 (2006) | 388 | 51 | 74 | 121 | 127 | 222 | 344 | 366 | 688 | 2940 |
| 2026-04-11 15:15 | 2.22 | 73 | 3190 (2008) | 50 (2006) | 388 | 51 | 74 | 121 | 127 | 222 | 344 | 366 | 688 | 2940 |
| 2026-04-11 14:15 | 2.22 | 73 | 3190 (2008) | 50 (2006) | 388 | 51 | 74 | 121 | 127 | 222 | 344 | 366 | 688 | 2940 |
| 2026-04-11 13:15 | 2.22 | 73 | 3190 (2008) | 50 (2006) | 388 | 51 | 74 | 121 | 127 | 222 | 344 | 366 | 688 | 2940 |
| 2026-04-11 12:15 | 2.22 | 73 | 3190 (2008) | 50 (2006) | 388 | 51 | 74 | 121 | 127 | 222 | 344 | 366 | 688 | 2940 |
| 2026-04-11 11:15 | 2.23 | 74 | 3190 (2008) | 50 (2006) | 388 | 51 | 74 | 121 | 127 | 222 | 344 | 366 | 688 | 2940 |
| 2026-04-11 10:15 | 2.23 | 74 | 3190 (2008) | 50 (2006) | 388 | 51 | 74 | 121 | 127 | 222 | 344 | 366 | 688 | 2940 |
| 2026-04-11 09:15 | 2.23 | 74 | 3190 (2008) | 50 (2006) | 388 | 51 | 74 | 121 | 127 | 222 | 344 | 366 | 688 | 2940 |
| 2026-04-11 08:15 | 2.23 | 74 | 3190 (2008) | 50 (2006) | 388 | 51 | 74 | 121 | 127 | 222 | 344 | 366 | 688 | 2940 |
| 2026-04-11 07:15 | 2.23 | 74 | 3190 (2008) | 50 (2006) | 388 | 51 | 74 | 121 | 127 | 222 | 344 | 366 | 688 | 2940 |
| 2026-04-11 06:15 | 2.22 | 73 | 3190 (2008) | 50 (2006) | 388 | 51 | 74 | 121 | 127 | 222 | 344 | 366 | 688 | 2940 |
| 2026-04-11 05:15 | 2.22 | 73 | 3190 (2008) | 50 (2006) | 388 | 51 | 74 | 121 | 127 | 222 | 344 | 366 | 688 | 2940 |
| 2026-04-11 04:15 | 2.22 | 73 | 3190 (2008) | 50 (2006) | 388 | 51 | 74 | 121 | 127 | 222 | 344 | 366 | 688 | 2940 |
| 2026-04-11 03:15 | 2.22 | 73 | 3190 (2008) | 50 (2006) | 388 | 51 | 74 | 121 | 127 | 222 | 344 | 366 | 688 | 2940 |
| 2026-04-11 02:15 | 2.23 | 74 | 3190 (2008) | 50 (2006) | 388 | 51 | 74 | 121 | 127 | 222 | 344 | 366 | 688 | 2940 |
| 2026-04-11 01:15 | 2.24 | 76 | 3190 (2008) | 50 (2006) | 388 | 51 | 74 | 121 | 127 | 222 | 344 | 366 | 688 | 2940 |
| 2026-04-11 00:15 | 2.25 | 77 | 3190 (2008) | 50 (2006) | 388 | 51 | 74 | 121 | 127 | 222 | 344 | 366 | 688 | 2940 |
| 2026-04-10 23:15 | 2.25 | 77 | 3190 (2008) | 50 (2006) | 388 | 51 | 74 | 121 | 127 | 222 | 344 | 366 | 688 | 2940 |
| 2026-04-10 22:15 | 2.24 | 76 | 7810 (2008) | 54 (2006) | 592 | 54 | 69 | 116 | 127 | 238 | 332 | 351 | 487 | 7080 |
| 2026-04-10 21:15 | 2.24 | 76 | 7810 (2008) | 54 (2006) | 592 | 54 | 69 | 116 | 127 | 238 | 332 | 351 | 487 | 7080 |
| 2026-04-10 20:15 | 2.24 | 76 | 7810 (2008) | 54 (2006) | 592 | 54 | 69 | 116 | 127 | 238 | 332 | 351 | 487 | 7080 |
| 2026-04-10 19:15 | 2.24 | 76 | 7810 (2008) | 54 (2006) | 592 | 54 | 69 | 116 | 127 | 238 | 332 | 351 | 487 | 7080 |
| 2026-04-10 18:15 | 2.25 | 77 | 7810 (2008) | 54 (2006) | 592 | 54 | 69 | 116 | 127 | 238 | 332 | 351 | 487 | 7080 |
| 2026-04-10 17:15 | 2.25 | 77 | 7810 (2008) | 54 (2006) | 592 | 54 | 69 | 116 | 127 | 238 | 332 | 351 | 487 | 7080 |
| 2026-04-10 16:15 | 2.25 | 77 | 7810 (2008) | 54 (2006) | 592 | 54 | 69 | 116 | 127 | 238 | 332 | 351 | 487 | 7080 |
| 2026-04-10 15:15 | 2.24 | 76 | 7810 (2008) | 54 (2006) | 592 | 54 | 69 | 116 | 127 | 238 | 332 | 351 | 487 | 7080 |
| 2026-04-10 14:15 | 2.22 | 73 | 7810 (2008) | 54 (2006) | 592 | 54 | 69 | 116 | 127 | 238 | 332 | 351 | 487 | 7080 |
| 2026-04-10 13:15 | 2.22 | 73 | 7810 (2008) | 54 (2006) | 592 | 54 | 69 | 116 | 127 | 238 | 332 | 351 | 487 | 7080 |
| 2026-04-10 12:15 | 2.23 | 74 | 7810 (2008) | 54 (2006) | 592 | 54 | 69 | 116 | 127 | 238 | 332 | 351 | 487 | 7080 |
| 2026-04-10 11:15 | 2.23 | 74 | 7810 (2008) | 54 (2006) | 592 | 54 | 69 | 116 | 127 | 238 | 332 | 351 | 487 | 7080 |
| 2026-04-10 10:15 | 2.23 | 74 | 7810 (2008) | 54 (2006) | 592 | 54 | 69 | 116 | 127 | 238 | 332 | 351 | 487 | 7080 |
| 2026-04-10 09:15 | 2.23 | 74 | 7810 (2008) | 54 (2006) | 592 | 54 | 69 | 116 | 127 | 238 | 332 | 351 | 487 | 7080 |
| 2026-04-10 08:15 | 2.23 | 74 | 7810 (2008) | 54 (2006) | 592 | 54 | 69 | 116 | 127 | 238 | 332 | 351 | 487 | 7080 |
| 2026-04-10 07:15 | 2.23 | 74 | 7810 (2008) | 54 (2006) | 592 | 54 | 69 | 116 | 127 | 238 | 332 | 351 | 487 | 7080 |
| 2026-04-10 06:15 | 2.23 | 74 | 7810 (2008) | 54 (2006) | 592 | 54 | 69 | 116 | 127 | 238 | 332 | 351 | 487 | 7080 |
| 2026-04-10 05:15 | 2.24 | 76 | 7810 (2008) | 54 (2006) | 592 | 54 | 69 | 116 | 127 | 238 | 332 | 351 | 487 | 7080 |
| 2026-04-10 04:15 | 2.24 | 76 | 7810 (2008) | 54 (2006) | 592 | 54 | 69 | 116 | 127 | 238 | 332 | 351 | 487 | 7080 |
| 2026-04-10 03:15 | 2.24 | 76 | 7810 (2008) | 54 (2006) | 592 | 54 | 69 | 116 | 127 | 238 | 332 | 351 | 487 | 7080 |
| 2026-04-10 02:15 | 2.24 | 76 | 7810 (2008) | 54 (2006) | 592 | 54 | 69 | 116 | 127 | 238 | 332 | 351 | 487 | 7080 |
| 2026-04-10 01:15 | 2.24 | 76 | 7810 (2008) | 54 (2006) | 592 | 54 | 69 | 116 | 127 | 238 | 332 | 351 | 487 | 7080 |
| 2026-04-10 00:15 | 2.25 | 77 | 7810 (2008) | 54 (2006) | 592 | 54 | 69 | 116 | 127 | 238 | 332 | 351 | 487 | 7080 |
| 2026-04-09 23:15 | 2.25 | 77 | 7810 (2008) | 54 (2006) | 592 | 54 | 69 | 116 | 127 | 238 | 332 | 351 | 487 | 7080 |
A total of 730 rows are displayed for years 2005 through 2025.